<?xml version="1.0" encoding="UTF-8" standalone="no" ?>
<gpx xmlns="http://www.topografix.com/GPX/1/1" xmlns:xsi="http://www.w3.org/2001/XMLSchema-instance" xsi:schemaLocation="http://www.topografix.com/GPX/1/1 http://www.topografix.com/GPX/1/1/gpx.xsd" version="1.1" creator="VisuGPX - https://www.visugpx.com">
  <metadata>
    <name>circuit n°3692: De Botmeur au réservoir de St Michel</name>
    <desc><![CDATA[Sur les Sentiers du Finistère - De Botmeur au réservoir de St Miche.

Le Réservoir de Saint-Michel dit aussi Lac Saint-Michel est un lac artificiel de 450 ha, créé en 1929 dans les marais et tourbières du Yeun Elez[1]. Retenu par le barrage-poids de Nestavel, lieu-dit de la commune de Brennilis, il a été créé afin de réguler le cours de l\'Elez utilisé par l\'usine hydroélectrique de Saint Herbot[1]Le lac est alimenté par l\'Elez à l\'Est et deux ruisseaux, le Roudouhir au Nord-Est et le Stêr-Red à l\'Est, correspondant à un bassin versant de 33 km²[3]. Il est partagé entre quatre communes : Brennilis (Nord-Est), Loqueffret (Sud-Est), Brasparts (Sud-Ouest) et Botmeur (Nord-Ouest).(source Wikipedia)

Sur Sentier Côtier, retrouvez les sentiers du Finistère à travers des parcours que Thierry et Françoise ont effectués. Numérisation des circuits réalisée sur le terrain. 
http://www.tracegps.com/fr/parcours/circuit3692.htm#]]></desc>
  </metadata>
  <trk>
    <name><![CDATA[2007-06-13 - TraceGps.com issued]]></name>
    <trkseg>
      <trkpt lat="48.38309" lon="-3.91974">
        <ele>249.674454</ele>
        <time>2007-06-13T08:23:22Z</time>
      </trkpt>
      <trkpt lat="48.38311" lon="-3.91967">
        <ele>250.423386</ele>
        <time>2007-06-13T08:23:59Z</time>
      </trkpt>
      <trkpt lat="48.38315" lon="-3.91968">
        <ele>251.118637</ele>
        <time>2007-06-13T08:26:35Z</time>
      </trkpt>
      <trkpt lat="48.38304" lon="-3.91938">
        <ele>250.989914</ele>
        <time>2007-06-13T08:26:59Z</time>
      </trkpt>
      <trkpt lat="48.38287" lon="-3.91888">
        <ele>249.85788</ele>
        <time>2007-06-13T08:27:31Z</time>
      </trkpt>
      <trkpt lat="48.38293" lon="-3.91818">
        <ele>251.415894</ele>
        <time>2007-06-13T08:28:09Z</time>
      </trkpt>
      <trkpt lat="48.38309" lon="-3.91737">
        <ele>255.697098</ele>
        <time>2007-06-13T08:28:58Z</time>
      </trkpt>
      <trkpt lat="48.38318" lon="-3.91731">
        <ele>257.329193</ele>
        <time>2007-06-13T08:29:19Z</time>
      </trkpt>
      <trkpt lat="48.38325" lon="-3.91704">
        <ele>259.214264</ele>
        <time>2007-06-13T08:30:04Z</time>
      </trkpt>
      <trkpt lat="48.38333" lon="-3.91623">
        <ele>261.814362</ele>
        <time>2007-06-13T08:30:46Z</time>
      </trkpt>
      <trkpt lat="48.38352" lon="-3.91586">
        <ele>264.436768</ele>
        <time>2007-06-13T08:31:20Z</time>
      </trkpt>
      <trkpt lat="48.38341" lon="-3.91562">
        <ele>262.858093</ele>
        <time>2007-06-13T08:31:44Z</time>
      </trkpt>
      <trkpt lat="48.38338" lon="-3.91568">
        <ele>262.467621</ele>
        <time>2007-06-13T08:32:07Z</time>
      </trkpt>
      <trkpt lat="48.38327" lon="-3.91554">
        <ele>260.873291</ele>
        <time>2007-06-13T08:32:30Z</time>
      </trkpt>
      <trkpt lat="48.383" lon="-3.91503">
        <ele>258.22171</ele>
        <time>2007-06-13T08:33:08Z</time>
      </trkpt>
      <trkpt lat="48.38293" lon="-3.9147">
        <ele>256.236694</ele>
        <time>2007-06-13T08:33:31Z</time>
      </trkpt>
      <trkpt lat="48.38286" lon="-3.91447">
        <ele>254.731369</ele>
        <time>2007-06-13T08:33:44Z</time>
      </trkpt>
      <trkpt lat="48.38286" lon="-3.91398">
        <ele>251.803848</ele>
        <time>2007-06-13T08:34:14Z</time>
      </trkpt>
      <trkpt lat="48.38295" lon="-3.91391">
        <ele>252.056213</ele>
        <time>2007-06-13T08:34:31Z</time>
      </trkpt>
      <trkpt lat="48.38289" lon="-3.91383">
        <ele>251.078949</ele>
        <time>2007-06-13T08:35:18Z</time>
      </trkpt>
      <trkpt lat="48.38287" lon="-3.91313">
        <ele>248.290253</ele>
        <time>2007-06-13T08:35:51Z</time>
      </trkpt>
      <trkpt lat="48.38274" lon="-3.91253">
        <ele>246.546753</ele>
        <time>2007-06-13T08:36:28Z</time>
      </trkpt>
      <trkpt lat="48.38264" lon="-3.9125">
        <ele>246.48793</ele>
        <time>2007-06-13T08:36:52Z</time>
      </trkpt>
      <trkpt lat="48.38232" lon="-3.91237">
        <ele>246.504272</ele>
        <time>2007-06-13T08:37:23Z</time>
      </trkpt>
      <trkpt lat="48.38194" lon="-3.91232">
        <ele>247.276871</ele>
        <time>2007-06-13T08:37:58Z</time>
      </trkpt>
      <trkpt lat="48.38178" lon="-3.9122">
        <ele>247.501678</ele>
        <time>2007-06-13T08:41:15Z</time>
      </trkpt>
      <trkpt lat="48.38138" lon="-3.91199">
        <ele>247.852997</ele>
        <time>2007-06-13T08:41:50Z</time>
      </trkpt>
      <trkpt lat="48.38103" lon="-3.91185">
        <ele>248.143692</ele>
        <time>2007-06-13T08:42:23Z</time>
      </trkpt>
      <trkpt lat="48.38044" lon="-3.91161">
        <ele>248.728821</ele>
        <time>2007-06-13T08:43:07Z</time>
      </trkpt>
      <trkpt lat="48.37982" lon="-3.91122">
        <ele>248.862488</ele>
        <time>2007-06-13T08:43:55Z</time>
      </trkpt>
      <trkpt lat="48.3794" lon="-3.91099">
        <ele>248.012222</ele>
        <time>2007-06-13T08:44:30Z</time>
      </trkpt>
      <trkpt lat="48.37922" lon="-3.9109">
        <ele>247.236237</ele>
        <time>2007-06-13T08:44:54Z</time>
      </trkpt>
      <trkpt lat="48.37862" lon="-3.91077">
        <ele>244.971619</ele>
        <time>2007-06-13T08:45:43Z</time>
      </trkpt>
      <trkpt lat="48.37819" lon="-3.91056">
        <ele>243.443375</ele>
        <time>2007-06-13T08:46:17Z</time>
      </trkpt>
      <trkpt lat="48.37757" lon="-3.91034">
        <ele>239.846634</ele>
        <time>2007-06-13T08:46:59Z</time>
      </trkpt>
      <trkpt lat="48.37708" lon="-3.91029">
        <ele>237.824738</ele>
        <time>2007-06-13T08:47:37Z</time>
      </trkpt>
      <trkpt lat="48.37695" lon="-3.91026">
        <ele>237.552109</ele>
        <time>2007-06-13T08:47:46Z</time>
      </trkpt>
      <trkpt lat="48.37648" lon="-3.91015">
        <ele>236.462189</ele>
        <time>2007-06-13T08:48:16Z</time>
      </trkpt>
      <trkpt lat="48.37615" lon="-3.91011">
        <ele>235.72023</ele>
        <time>2007-06-13T08:48:45Z</time>
      </trkpt>
      <trkpt lat="48.37524" lon="-3.91011">
        <ele>234</ele>
        <time>2007-06-13T08:49:48Z</time>
      </trkpt>
      <trkpt lat="48.37437" lon="-3.91011">
        <ele>233.371887</ele>
        <time>2007-06-13T08:50:51Z</time>
      </trkpt>
      <trkpt lat="48.37339" lon="-3.91009">
        <ele>234</ele>
        <time>2007-06-13T08:51:59Z</time>
      </trkpt>
      <trkpt lat="48.37296" lon="-3.90993">
        <ele>234</ele>
        <time>2007-06-13T08:52:32Z</time>
      </trkpt>
      <trkpt lat="48.37248" lon="-3.90951">
        <ele>234</ele>
        <time>2007-06-13T08:53:14Z</time>
      </trkpt>
      <trkpt lat="48.37249" lon="-3.90948">
        <ele>234</ele>
        <time>2007-06-13T08:53:27Z</time>
      </trkpt>
      <trkpt lat="48.37214" lon="-3.90922">
        <ele>234</ele>
        <time>2007-06-13T08:53:55Z</time>
      </trkpt>
      <trkpt lat="48.37147" lon="-3.90876">
        <ele>234</ele>
        <time>2007-06-13T08:54:49Z</time>
      </trkpt>
      <trkpt lat="48.37143" lon="-3.9088">
        <ele>234</ele>
        <time>2007-06-13T08:55:11Z</time>
      </trkpt>
      <trkpt lat="48.37145" lon="-3.90897">
        <ele>234</ele>
        <time>2007-06-13T08:55:34Z</time>
      </trkpt>
      <trkpt lat="48.37148" lon="-3.90916">
        <ele>234</ele>
        <time>2007-06-13T08:55:50Z</time>
      </trkpt>
      <trkpt lat="48.37157" lon="-3.90951">
        <ele>234</ele>
        <time>2007-06-13T08:56:15Z</time>
      </trkpt>
      <trkpt lat="48.37162" lon="-3.91004">
        <ele>233.816452</ele>
        <time>2007-06-13T08:56:39Z</time>
      </trkpt>
      <trkpt lat="48.37174" lon="-3.91069">
        <ele>234</ele>
        <time>2007-06-13T08:57:10Z</time>
      </trkpt>
      <trkpt lat="48.37178" lon="-3.91089">
        <ele>234</ele>
        <time>2007-06-13T08:57:21Z</time>
      </trkpt>
      <trkpt lat="48.37181" lon="-3.91123">
        <ele>234</ele>
        <time>2007-06-13T08:57:37Z</time>
      </trkpt>
      <trkpt lat="48.37189" lon="-3.91186">
        <ele>234</ele>
        <time>2007-06-13T08:58:10Z</time>
      </trkpt>
      <trkpt lat="48.37188" lon="-3.9122">
        <ele>234</ele>
        <time>2007-06-13T08:58:27Z</time>
      </trkpt>
      <trkpt lat="48.37189" lon="-3.91233">
        <ele>234</ele>
        <time>2007-06-13T08:58:33Z</time>
      </trkpt>
      <trkpt lat="48.37198" lon="-3.91251">
        <ele>234</ele>
        <time>2007-06-13T08:58:50Z</time>
      </trkpt>
      <trkpt lat="48.37205" lon="-3.91303">
        <ele>234</ele>
        <time>2007-06-13T08:59:23Z</time>
      </trkpt>
      <trkpt lat="48.37202" lon="-3.91376">
        <ele>235.978699</ele>
        <time>2007-06-13T09:00:05Z</time>
      </trkpt>
      <trkpt lat="48.372" lon="-3.91397">
        <ele>236.574081</ele>
        <time>2007-06-13T09:00:33Z</time>
      </trkpt>
      <trkpt lat="48.37195" lon="-3.91436">
        <ele>237.6707</ele>
        <time>2007-06-13T09:00:58Z</time>
      </trkpt>
      <trkpt lat="48.37194" lon="-3.91468">
        <ele>238.308762</ele>
        <time>2007-06-13T09:01:23Z</time>
      </trkpt>
      <trkpt lat="48.37192" lon="-3.91483">
        <ele>238.540024</ele>
        <time>2007-06-13T09:02:04Z</time>
      </trkpt>
      <trkpt lat="48.37186" lon="-3.91508">
        <ele>238.951355</ele>
        <time>2007-06-13T09:02:28Z</time>
      </trkpt>
      <trkpt lat="48.37179" lon="-3.91569">
        <ele>239.876328</ele>
        <time>2007-06-13T09:03:01Z</time>
      </trkpt>
      <trkpt lat="48.37177" lon="-3.91588">
        <ele>240.112671</ele>
        <time>2007-06-13T09:03:24Z</time>
      </trkpt>
      <trkpt lat="48.37166" lon="-3.91642">
        <ele>240.499329</ele>
        <time>2007-06-13T09:03:53Z</time>
      </trkpt>
      <trkpt lat="48.37149" lon="-3.91695">
        <ele>239.56749</ele>
        <time>2007-06-13T09:04:29Z</time>
      </trkpt>
      <trkpt lat="48.37149" lon="-3.91735">
        <ele>238.698715</ele>
        <time>2007-06-13T09:05:01Z</time>
      </trkpt>
      <trkpt lat="48.37168" lon="-3.91798">
        <ele>238.171448</ele>
        <time>2007-06-13T09:05:37Z</time>
      </trkpt>
      <trkpt lat="48.37184" lon="-3.91842">
        <ele>238.488663</ele>
        <time>2007-06-13T09:05:58Z</time>
      </trkpt>
      <trkpt lat="48.37189" lon="-3.91858">
        <ele>239.00737</ele>
        <time>2007-06-13T09:06:10Z</time>
      </trkpt>
      <trkpt lat="48.37191" lon="-3.9187">
        <ele>239.402649</ele>
        <time>2007-06-13T09:06:26Z</time>
      </trkpt>
      <trkpt lat="48.37188" lon="-3.91893">
        <ele>239.80159</ele>
        <time>2007-06-13T09:06:38Z</time>
      </trkpt>
      <trkpt lat="48.37179" lon="-3.91928">
        <ele>240.315933</ele>
        <time>2007-06-13T09:06:56Z</time>
      </trkpt>
      <trkpt lat="48.37168" lon="-3.91981">
        <ele>240.990021</ele>
        <time>2007-06-13T09:07:23Z</time>
      </trkpt>
      <trkpt lat="48.3717" lon="-3.91993">
        <ele>241.326935</ele>
        <time>2007-06-13T09:07:31Z</time>
      </trkpt>
      <trkpt lat="48.37167" lon="-3.92003">
        <ele>241.618286</ele>
        <time>2007-06-13T09:07:44Z</time>
      </trkpt>
      <trkpt lat="48.3716" lon="-3.92047">
        <ele>242.799683</ele>
        <time>2007-06-13T09:08:11Z</time>
      </trkpt>
      <trkpt lat="48.37152" lon="-3.92102">
        <ele>244.349869</ele>
        <time>2007-06-13T09:08:37Z</time>
      </trkpt>
      <trkpt lat="48.37146" lon="-3.92147">
        <ele>246.095856</ele>
        <time>2007-06-13T09:08:58Z</time>
      </trkpt>
      <trkpt lat="48.37137" lon="-3.92185">
        <ele>247.541901</ele>
        <time>2007-06-13T09:09:16Z</time>
      </trkpt>
      <trkpt lat="48.37132" lon="-3.92198">
        <ele>247.668304</ele>
        <time>2007-06-13T09:09:26Z</time>
      </trkpt>
      <trkpt lat="48.37119" lon="-3.92224">
        <ele>247.805283</ele>
        <time>2007-06-13T09:09:41Z</time>
      </trkpt>
      <trkpt lat="48.37111" lon="-3.92268">
        <ele>248.019043</ele>
        <time>2007-06-13T09:10:06Z</time>
      </trkpt>
      <trkpt lat="48.37096" lon="-3.92278">
        <ele>247.852051</ele>
        <time>2007-06-13T09:10:30Z</time>
      </trkpt>
      <trkpt lat="48.37036" lon="-3.92263">
        <ele>246.74437</ele>
        <time>2007-06-13T09:11:15Z</time>
      </trkpt>
      <trkpt lat="48.37" lon="-3.92256">
        <ele>245.899811</ele>
        <time>2007-06-13T09:11:38Z</time>
      </trkpt>
      <trkpt lat="48.36983" lon="-3.92252">
        <ele>245.481018</ele>
        <time>2007-06-13T09:11:50Z</time>
      </trkpt>
      <trkpt lat="48.36948" lon="-3.92254">
        <ele>244.803833</ele>
        <time>2007-06-13T09:12:08Z</time>
      </trkpt>
      <trkpt lat="48.36938" lon="-3.92248">
        <ele>244.501572</ele>
        <time>2007-06-13T09:12:18Z</time>
      </trkpt>
      <trkpt lat="48.36921" lon="-3.92237">
        <ele>243.980392</ele>
        <time>2007-06-13T09:12:31Z</time>
      </trkpt>
      <trkpt lat="48.36881" lon="-3.92218">
        <ele>242.870529</ele>
        <time>2007-06-13T09:12:56Z</time>
      </trkpt>
      <trkpt lat="48.36872" lon="-3.92207">
        <ele>242.504791</ele>
        <time>2007-06-13T09:13:03Z</time>
      </trkpt>
      <trkpt lat="48.36867" lon="-3.92203">
        <ele>242.337784</ele>
        <time>2007-06-13T09:13:09Z</time>
      </trkpt>
      <trkpt lat="48.36857" lon="-3.92193">
        <ele>241.975891</ele>
        <time>2007-06-13T09:13:16Z</time>
      </trkpt>
      <trkpt lat="48.36824" lon="-3.92155">
        <ele>240.609451</ele>
        <time>2007-06-13T09:13:39Z</time>
      </trkpt>
      <trkpt lat="48.36818" lon="-3.92144">
        <ele>240.393951</ele>
        <time>2007-06-13T09:13:47Z</time>
      </trkpt>
      <trkpt lat="48.36806" lon="-3.92139">
        <ele>240.071625</ele>
        <time>2007-06-13T09:13:58Z</time>
      </trkpt>
      <trkpt lat="48.36803" lon="-3.92152">
        <ele>240.062866</ele>
        <time>2007-06-13T09:14:21Z</time>
      </trkpt>
      <trkpt lat="48.36797" lon="-3.92197">
        <ele>239.976639</ele>
        <time>2007-06-13T09:14:47Z</time>
      </trkpt>
      <trkpt lat="48.36794" lon="-3.92231">
        <ele>239.957687</ele>
        <time>2007-06-13T09:15:13Z</time>
      </trkpt>
      <trkpt lat="48.36791" lon="-3.9228">
        <ele>239.922287</ele>
        <time>2007-06-13T09:15:48Z</time>
      </trkpt>
      <trkpt lat="48.36787" lon="-3.92303">
        <ele>239.794037</ele>
        <time>2007-06-13T09:15:58Z</time>
      </trkpt>
      <trkpt lat="48.36779" lon="-3.92317">
        <ele>239.347076</ele>
        <time>2007-06-13T09:16:15Z</time>
      </trkpt>
      <trkpt lat="48.36771" lon="-3.9234">
        <ele>238.696213</ele>
        <time>2007-06-13T09:16:39Z</time>
      </trkpt>
      <trkpt lat="48.36755" lon="-3.92387">
        <ele>236.882202</ele>
        <time>2007-06-13T09:17:04Z</time>
      </trkpt>
      <trkpt lat="48.36725" lon="-3.92481">
        <ele>233.556671</ele>
        <time>2007-06-13T09:17:48Z</time>
      </trkpt>
      <trkpt lat="48.3672" lon="-3.925">
        <ele>233.185822</ele>
        <time>2007-06-13T09:17:57Z</time>
      </trkpt>
      <trkpt lat="48.3671" lon="-3.92546">
        <ele>232.257736</ele>
        <time>2007-06-13T09:18:16Z</time>
      </trkpt>
      <trkpt lat="48.36691" lon="-3.92649">
        <ele>230.305756</ele>
        <time>2007-06-13T09:19:10Z</time>
      </trkpt>
      <trkpt lat="48.3669" lon="-3.92654">
        <ele>230.223709</ele>
        <time>2007-06-13T09:19:33Z</time>
      </trkpt>
      <trkpt lat="48.36693" lon="-3.92644">
        <ele>230.373108</ele>
        <time>2007-06-13T09:19:51Z</time>
      </trkpt>
      <trkpt lat="48.3669" lon="-3.92673">
        <ele>230.053772</ele>
        <time>2007-06-13T09:21:40Z</time>
      </trkpt>
      <trkpt lat="48.36674" lon="-3.92731">
        <ele>230.946213</ele>
        <time>2007-06-13T09:22:18Z</time>
      </trkpt>
      <trkpt lat="48.3664" lon="-3.92783">
        <ele>231</ele>
        <time>2007-06-13T09:23:02Z</time>
      </trkpt>
      <trkpt lat="48.36631" lon="-3.92784">
        <ele>231.014923</ele>
        <time>2007-06-13T09:23:29Z</time>
      </trkpt>
      <trkpt lat="48.36614" lon="-3.92781">
        <ele>231.308136</ele>
        <time>2007-06-13T09:23:50Z</time>
      </trkpt>
      <trkpt lat="48.36565" lon="-3.92761">
        <ele>231.574982</ele>
        <time>2007-06-13T09:24:34Z</time>
      </trkpt>
      <trkpt lat="48.36545" lon="-3.92751">
        <ele>231.46756</ele>
        <time>2007-06-13T09:25:09Z</time>
      </trkpt>
      <trkpt lat="48.36526" lon="-3.92746">
        <ele>231.430389</ele>
        <time>2007-06-13T09:26:40Z</time>
      </trkpt>
      <trkpt lat="48.36508" lon="-3.92739">
        <ele>231.358597</ele>
        <time>2007-06-13T09:27:12Z</time>
      </trkpt>
      <trkpt lat="48.3649" lon="-3.92731">
        <ele>231.27211</ele>
        <time>2007-06-13T09:28:06Z</time>
      </trkpt>
      <trkpt lat="48.36428" lon="-3.92706">
        <ele>231.00885</ele>
        <time>2007-06-13T09:28:54Z</time>
      </trkpt>
      <trkpt lat="48.36391" lon="-3.92684">
        <ele>230.888855</ele>
        <time>2007-06-13T09:29:25Z</time>
      </trkpt>
      <trkpt lat="48.36378" lon="-3.9268">
        <ele>230.789368</ele>
        <time>2007-06-13T09:29:38Z</time>
      </trkpt>
      <trkpt lat="48.3635" lon="-3.92672">
        <ele>230.648117</ele>
        <time>2007-06-13T09:30:03Z</time>
      </trkpt>
      <trkpt lat="48.36301" lon="-3.92657">
        <ele>230.260208</ele>
        <time>2007-06-13T09:30:30Z</time>
      </trkpt>
      <trkpt lat="48.36271" lon="-3.92643">
        <ele>229.899399</ele>
        <time>2007-06-13T09:30:54Z</time>
      </trkpt>
      <trkpt lat="48.3624" lon="-3.92602">
        <ele>229.085846</ele>
        <time>2007-06-13T09:31:19Z</time>
      </trkpt>
      <trkpt lat="48.36237" lon="-3.92593">
        <ele>229.024689</ele>
        <time>2007-06-13T09:31:26Z</time>
      </trkpt>
      <trkpt lat="48.36223" lon="-3.92556">
        <ele>228.731461</ele>
        <time>2007-06-13T09:31:50Z</time>
      </trkpt>
      <trkpt lat="48.36192" lon="-3.92514">
        <ele>228</ele>
        <time>2007-06-13T09:32:26Z</time>
      </trkpt>
      <trkpt lat="48.36154" lon="-3.92521">
        <ele>228</ele>
        <time>2007-06-13T09:33:01Z</time>
      </trkpt>
      <trkpt lat="48.36155" lon="-3.92523">
        <ele>228</ele>
        <time>2007-06-13T09:33:32Z</time>
      </trkpt>
      <trkpt lat="48.36153" lon="-3.92514">
        <ele>228</ele>
        <time>2007-06-13T09:35:23Z</time>
      </trkpt>
      <trkpt lat="48.36144" lon="-3.92518">
        <ele>228</ele>
        <time>2007-06-13T09:35:45Z</time>
      </trkpt>
      <trkpt lat="48.36114" lon="-3.92525">
        <ele>228</ele>
        <time>2007-06-13T09:36:25Z</time>
      </trkpt>
      <trkpt lat="48.36057" lon="-3.92537">
        <ele>228.200699</ele>
        <time>2007-06-13T09:37:11Z</time>
      </trkpt>
      <trkpt lat="48.36034" lon="-3.92542">
        <ele>228.663071</ele>
        <time>2007-06-13T09:37:45Z</time>
      </trkpt>
      <trkpt lat="48.36009" lon="-3.92545">
        <ele>229.027618</ele>
        <time>2007-06-13T09:38:28Z</time>
      </trkpt>
      <trkpt lat="48.35956" lon="-3.9255">
        <ele>229.537003</ele>
        <time>2007-06-13T09:39:09Z</time>
      </trkpt>
      <trkpt lat="48.35879" lon="-3.92542">
        <ele>229.991669</ele>
        <time>2007-06-13T09:40:09Z</time>
      </trkpt>
      <trkpt lat="48.35871" lon="-3.9253">
        <ele>230.062912</ele>
        <time>2007-06-13T09:40:35Z</time>
      </trkpt>
      <trkpt lat="48.35842" lon="-3.92539">
        <ele>230.460907</ele>
        <time>2007-06-13T09:41:40Z</time>
      </trkpt>
      <trkpt lat="48.35805" lon="-3.92551">
        <ele>230.930862</ele>
        <time>2007-06-13T09:42:21Z</time>
      </trkpt>
      <trkpt lat="48.35798" lon="-3.92553">
        <ele>230.968369</ele>
        <time>2007-06-13T09:42:48Z</time>
      </trkpt>
      <trkpt lat="48.35792" lon="-3.92554">
        <ele>230.987167</ele>
        <time>2007-06-13T09:43:06Z</time>
      </trkpt>
      <trkpt lat="48.35772" lon="-3.92562">
        <ele>231.357788</ele>
        <time>2007-06-13T09:43:55Z</time>
      </trkpt>
      <trkpt lat="48.35736" lon="-3.92575">
        <ele>232.367859</ele>
        <time>2007-06-13T09:44:32Z</time>
      </trkpt>
      <trkpt lat="48.35715" lon="-3.92582">
        <ele>232.744568</ele>
        <time>2007-06-13T09:44:57Z</time>
      </trkpt>
      <trkpt lat="48.35647" lon="-3.92603">
        <ele>233.869965</ele>
        <time>2007-06-13T09:46:01Z</time>
      </trkpt>
      <trkpt lat="48.35594" lon="-3.9262">
        <ele>234.208817</ele>
        <time>2007-06-13T09:46:49Z</time>
      </trkpt>
      <trkpt lat="48.35582" lon="-3.92637">
        <ele>234.491302</ele>
        <time>2007-06-13T09:47:12Z</time>
      </trkpt>
      <trkpt lat="48.35534" lon="-3.92653">
        <ele>235.293945</ele>
        <time>2007-06-13T09:47:56Z</time>
      </trkpt>
      <trkpt lat="48.35521" lon="-3.92657">
        <ele>235.66069</ele>
        <time>2007-06-13T09:48:15Z</time>
      </trkpt>
      <trkpt lat="48.35484" lon="-3.92668">
        <ele>236.125885</ele>
        <time>2007-06-13T09:48:55Z</time>
      </trkpt>
      <trkpt lat="48.35465" lon="-3.92674">
        <ele>236.237549</ele>
        <time>2007-06-13T09:49:20Z</time>
      </trkpt>
      <trkpt lat="48.3543" lon="-3.92686">
        <ele>237.230896</ele>
        <time>2007-06-13T09:50:00Z</time>
      </trkpt>
      <trkpt lat="48.35401" lon="-3.92694">
        <ele>238.041275</ele>
        <time>2007-06-13T09:50:41Z</time>
      </trkpt>
      <trkpt lat="48.35358" lon="-3.92708">
        <ele>238.956009</ele>
        <time>2007-06-13T09:51:22Z</time>
      </trkpt>
      <trkpt lat="48.35308" lon="-3.92724">
        <ele>239.785324</ele>
        <time>2007-06-13T09:52:11Z</time>
      </trkpt>
      <trkpt lat="48.35258" lon="-3.9274">
        <ele>242.156876</ele>
        <time>2007-06-13T09:53:01Z</time>
      </trkpt>
      <trkpt lat="48.35219" lon="-3.92752">
        <ele>244.378632</ele>
        <time>2007-06-13T09:53:43Z</time>
      </trkpt>
      <trkpt lat="48.35163" lon="-3.9277">
        <ele>247.990814</ele>
        <time>2007-06-13T09:54:36Z</time>
      </trkpt>
      <trkpt lat="48.35136" lon="-3.92779">
        <ele>249.795547</ele>
        <time>2007-06-13T09:55:10Z</time>
      </trkpt>
      <trkpt lat="48.35121" lon="-3.92784">
        <ele>250.720673</ele>
        <time>2007-06-13T09:56:03Z</time>
      </trkpt>
      <trkpt lat="48.35075" lon="-3.92799">
        <ele>253.669769</ele>
        <time>2007-06-13T09:56:43Z</time>
      </trkpt>
      <trkpt lat="48.35028" lon="-3.92813">
        <ele>256.097137</ele>
        <time>2007-06-13T09:57:24Z</time>
      </trkpt>
      <trkpt lat="48.35008" lon="-3.92819">
        <ele>257.116943</ele>
        <time>2007-06-13T09:57:58Z</time>
      </trkpt>
      <trkpt lat="48.34983" lon="-3.92827">
        <ele>258.847046</ele>
        <time>2007-06-13T09:58:34Z</time>
      </trkpt>
      <trkpt lat="48.34932" lon="-3.92842">
        <ele>262.901672</ele>
        <time>2007-06-13T09:59:21Z</time>
      </trkpt>
      <trkpt lat="48.34934" lon="-3.92841">
        <ele>262.756134</ele>
        <time>2007-06-13T09:59:51Z</time>
      </trkpt>
      <trkpt lat="48.34927" lon="-3.92797">
        <ele>262.362</ele>
        <time>2007-06-13T10:00:28Z</time>
      </trkpt>
      <trkpt lat="48.34909" lon="-3.92715">
        <ele>261.867828</ele>
        <time>2007-06-13T10:01:14Z</time>
      </trkpt>
      <trkpt lat="48.34907" lon="-3.92679">
        <ele>261.533875</ele>
        <time>2007-06-13T10:01:45Z</time>
      </trkpt>
      <trkpt lat="48.34895" lon="-3.92644">
        <ele>261.835938</ele>
        <time>2007-06-13T10:02:25Z</time>
      </trkpt>
      <trkpt lat="48.34885" lon="-3.92614">
        <ele>262.15802</ele>
        <time>2007-06-13T10:02:57Z</time>
      </trkpt>
      <trkpt lat="48.3488" lon="-3.92586">
        <ele>262.275757</ele>
        <time>2007-06-13T10:03:22Z</time>
      </trkpt>
      <trkpt lat="48.34865" lon="-3.92517">
        <ele>261.435944</ele>
        <time>2007-06-13T10:04:08Z</time>
      </trkpt>
      <trkpt lat="48.34864" lon="-3.92511">
        <ele>261.516785</ele>
        <time>2007-06-13T10:04:37Z</time>
      </trkpt>
      <trkpt lat="48.34855" lon="-3.92469">
        <ele>261.753754</ele>
        <time>2007-06-13T10:05:01Z</time>
      </trkpt>
      <trkpt lat="48.34833" lon="-3.92372">
        <ele>262.997894</ele>
        <time>2007-06-13T10:05:57Z</time>
      </trkpt>
      <trkpt lat="48.34823" lon="-3.92324">
        <ele>263.145691</ele>
        <time>2007-06-13T10:06:37Z</time>
      </trkpt>
      <trkpt lat="48.34813" lon="-3.92285">
        <ele>263.40744</ele>
        <time>2007-06-13T10:07:15Z</time>
      </trkpt>
      <trkpt lat="48.3481" lon="-3.92275">
        <ele>263.481873</ele>
        <time>2007-06-13T10:07:39Z</time>
      </trkpt>
      <trkpt lat="48.34801" lon="-3.92235">
        <ele>263.559753</ele>
        <time>2007-06-13T10:08:05Z</time>
      </trkpt>
      <trkpt lat="48.34777" lon="-3.92125">
        <ele>263.378052</ele>
        <time>2007-06-13T10:09:04Z</time>
      </trkpt>
      <trkpt lat="48.34762" lon="-3.92057">
        <ele>264.035706</ele>
        <time>2007-06-13T10:09:48Z</time>
      </trkpt>
      <trkpt lat="48.34758" lon="-3.92041">
        <ele>264.322845</ele>
        <time>2007-06-13T10:10:06Z</time>
      </trkpt>
      <trkpt lat="48.34741" lon="-3.91976">
        <ele>264.700684</ele>
        <time>2007-06-13T10:10:41Z</time>
      </trkpt>
      <trkpt lat="48.34734" lon="-3.91937">
        <ele>264.8479</ele>
        <time>2007-06-13T10:11:03Z</time>
      </trkpt>
      <trkpt lat="48.34725" lon="-3.91886">
        <ele>264.874847</ele>
        <time>2007-06-13T10:11:31Z</time>
      </trkpt>
      <trkpt lat="48.34725" lon="-3.91884">
        <ele>264.830261</ele>
        <time>2007-06-13T10:12:03Z</time>
      </trkpt>
      <trkpt lat="48.34713" lon="-3.9184">
        <ele>264.918274</ele>
        <time>2007-06-13T10:13:01Z</time>
      </trkpt>
      <trkpt lat="48.34711" lon="-3.91829">
        <ele>264.983765</ele>
        <time>2007-06-13T10:13:25Z</time>
      </trkpt>
      <trkpt lat="48.34701" lon="-3.91782">
        <ele>265.953705</ele>
        <time>2007-06-13T10:13:49Z</time>
      </trkpt>
      <trkpt lat="48.34699" lon="-3.91772">
        <ele>266.189087</ele>
        <time>2007-06-13T10:14:15Z</time>
      </trkpt>
      <trkpt lat="48.3469" lon="-3.9173">
        <ele>267.094666</ele>
        <time>2007-06-13T10:14:40Z</time>
      </trkpt>
      <trkpt lat="48.34679" lon="-3.91678">
        <ele>267.794281</ele>
        <time>2007-06-13T10:15:21Z</time>
      </trkpt>
      <trkpt lat="48.3467" lon="-3.91639">
        <ele>268.539459</ele>
        <time>2007-06-13T10:16:22Z</time>
      </trkpt>
      <trkpt lat="48.34659" lon="-3.91563">
        <ele>270.206848</ele>
        <time>2007-06-13T10:17:07Z</time>
      </trkpt>
      <trkpt lat="48.34654" lon="-3.91524">
        <ele>270.204071</ele>
        <time>2007-06-13T10:17:55Z</time>
      </trkpt>
      <trkpt lat="48.3465" lon="-3.91467">
        <ele>269.127228</ele>
        <time>2007-06-13T10:18:26Z</time>
      </trkpt>
      <trkpt lat="48.34648" lon="-3.91447">
        <ele>268.652679</ele>
        <time>2007-06-13T10:18:48Z</time>
      </trkpt>
      <trkpt lat="48.34643" lon="-3.91408">
        <ele>267.851624</ele>
        <time>2007-06-13T10:19:12Z</time>
      </trkpt>
      <trkpt lat="48.34639" lon="-3.91382">
        <ele>267.222107</ele>
        <time>2007-06-13T10:19:38Z</time>
      </trkpt>
      <trkpt lat="48.34634" lon="-3.91354">
        <ele>266.543365</ele>
        <time>2007-06-13T10:20:01Z</time>
      </trkpt>
      <trkpt lat="48.34615" lon="-3.91254">
        <ele>264.483459</ele>
        <time>2007-06-13T10:20:52Z</time>
      </trkpt>
      <trkpt lat="48.34596" lon="-3.91158">
        <ele>263.052429</ele>
        <time>2007-06-13T10:21:42Z</time>
      </trkpt>
      <trkpt lat="48.34594" lon="-3.91147">
        <ele>262.986298</ele>
        <time>2007-06-13T10:22:04Z</time>
      </trkpt>
      <trkpt lat="48.3459" lon="-3.9112">
        <ele>262.933533</ele>
        <time>2007-06-13T10:22:28Z</time>
      </trkpt>
      <trkpt lat="48.34575" lon="-3.91052">
        <ele>263.305328</ele>
        <time>2007-06-13T10:23:07Z</time>
      </trkpt>
      <trkpt lat="48.34567" lon="-3.90999">
        <ele>262.789856</ele>
        <time>2007-06-13T10:23:35Z</time>
      </trkpt>
      <trkpt lat="48.34571" lon="-3.90998">
        <ele>262.47168</ele>
        <time>2007-06-13T10:23:40Z</time>
      </trkpt>
      <trkpt lat="48.34564" lon="-3.90985">
        <ele>262.608795</ele>
        <time>2007-06-13T10:23:46Z</time>
      </trkpt>
      <trkpt lat="48.34556" lon="-3.90943">
        <ele>262.321075</ele>
        <time>2007-06-13T10:24:11Z</time>
      </trkpt>
      <trkpt lat="48.34553" lon="-3.90909">
        <ele>261.72934</ele>
        <time>2007-06-13T10:24:38Z</time>
      </trkpt>
      <trkpt lat="48.3454" lon="-3.90869">
        <ele>261.916168</ele>
        <time>2007-06-13T10:25:17Z</time>
      </trkpt>
      <trkpt lat="48.34525" lon="-3.90784">
        <ele>261.269562</ele>
        <time>2007-06-13T10:26:02Z</time>
      </trkpt>
      <trkpt lat="48.34517" lon="-3.90743">
        <ele>260.85257</ele>
        <time>2007-06-13T10:26:25Z</time>
      </trkpt>
      <trkpt lat="48.34507" lon="-3.9069">
        <ele>260.11554</ele>
        <time>2007-06-13T10:26:50Z</time>
      </trkpt>
      <trkpt lat="48.34499" lon="-3.90652">
        <ele>259.693329</ele>
        <time>2007-06-13T10:27:09Z</time>
      </trkpt>
      <trkpt lat="48.34491" lon="-3.90614">
        <ele>259.077789</ele>
        <time>2007-06-13T10:27:32Z</time>
      </trkpt>
      <trkpt lat="48.3449" lon="-3.90599">
        <ele>258.81192</ele>
        <time>2007-06-13T10:27:40Z</time>
      </trkpt>
      <trkpt lat="48.34486" lon="-3.90577">
        <ele>258.466644</ele>
        <time>2007-06-13T10:27:48Z</time>
      </trkpt>
      <trkpt lat="48.34475" lon="-3.90528">
        <ele>258.336304</ele>
        <time>2007-06-13T10:28:03Z</time>
      </trkpt>
      <trkpt lat="48.34467" lon="-3.90497">
        <ele>258.105988</ele>
        <time>2007-06-13T10:28:25Z</time>
      </trkpt>
      <trkpt lat="48.34459" lon="-3.9045">
        <ele>257.21167</ele>
        <time>2007-06-13T10:29:01Z</time>
      </trkpt>
      <trkpt lat="48.34449" lon="-3.90394">
        <ele>256.84314</ele>
        <time>2007-06-13T10:29:43Z</time>
      </trkpt>
      <trkpt lat="48.34439" lon="-3.90354">
        <ele>256.368896</ele>
        <time>2007-06-13T10:30:15Z</time>
      </trkpt>
      <trkpt lat="48.34439" lon="-3.90344">
        <ele>256.018982</ele>
        <time>2007-06-13T10:30:36Z</time>
      </trkpt>
      <trkpt lat="48.3443" lon="-3.90304">
        <ele>255.291092</ele>
        <time>2007-06-13T10:31:05Z</time>
      </trkpt>
      <trkpt lat="48.34424" lon="-3.90274">
        <ele>255.309143</ele>
        <time>2007-06-13T10:31:22Z</time>
      </trkpt>
      <trkpt lat="48.34417" lon="-3.90244">
        <ele>255.555557</ele>
        <time>2007-06-13T10:31:43Z</time>
      </trkpt>
      <trkpt lat="48.34407" lon="-3.90192">
        <ele>255.357376</ele>
        <time>2007-06-13T10:32:18Z</time>
      </trkpt>
      <trkpt lat="48.344" lon="-3.90152">
        <ele>255.063248</ele>
        <time>2007-06-13T10:33:32Z</time>
      </trkpt>
      <trkpt lat="48.34386" lon="-3.90085">
        <ele>254.76268</ele>
        <time>2007-06-13T10:34:05Z</time>
      </trkpt>
      <trkpt lat="48.34381" lon="-3.90048">
        <ele>254.77919</ele>
        <time>2007-06-13T10:34:24Z</time>
      </trkpt>
      <trkpt lat="48.34373" lon="-3.90018">
        <ele>254.819824</ele>
        <time>2007-06-13T10:34:41Z</time>
      </trkpt>
      <trkpt lat="48.34369" lon="-3.89992">
        <ele>254.450562</ele>
        <time>2007-06-13T10:34:57Z</time>
      </trkpt>
      <trkpt lat="48.34363" lon="-3.89958">
        <ele>254.020874</ele>
        <time>2007-06-13T10:35:13Z</time>
      </trkpt>
      <trkpt lat="48.34355" lon="-3.89924">
        <ele>253.65303</ele>
        <time>2007-06-13T10:35:29Z</time>
      </trkpt>
      <trkpt lat="48.34344" lon="-3.89864">
        <ele>252.84024</ele>
        <time>2007-06-13T10:35:59Z</time>
      </trkpt>
      <trkpt lat="48.34333" lon="-3.89832">
        <ele>252.805557</ele>
        <time>2007-06-13T10:36:19Z</time>
      </trkpt>
      <trkpt lat="48.34322" lon="-3.89819">
        <ele>253.258926</ele>
        <time>2007-06-13T10:36:31Z</time>
      </trkpt>
      <trkpt lat="48.34318" lon="-3.89818">
        <ele>253.480392</ele>
        <time>2007-06-13T10:36:52Z</time>
      </trkpt>
      <trkpt lat="48.34289" lon="-3.89817">
        <ele>255.480316</ele>
        <time>2007-06-13T10:37:22Z</time>
      </trkpt>
      <trkpt lat="48.34232" lon="-3.89807">
        <ele>258.486267</ele>
        <time>2007-06-13T10:38:08Z</time>
      </trkpt>
      <trkpt lat="48.34179" lon="-3.89803">
        <ele>259.985046</ele>
        <time>2007-06-13T10:38:51Z</time>
      </trkpt>
      <trkpt lat="48.34107" lon="-3.89803">
        <ele>257.305359</ele>
        <time>2007-06-13T10:39:44Z</time>
      </trkpt>
      <trkpt lat="48.3404" lon="-3.89785">
        <ele>252.987183</ele>
        <time>2007-06-13T10:40:41Z</time>
      </trkpt>
      <trkpt lat="48.34042" lon="-3.89738">
        <ele>253.635468</ele>
        <time>2007-06-13T10:41:14Z</time>
      </trkpt>
      <trkpt lat="48.34064" lon="-3.89668">
        <ele>255.126511</ele>
        <time>2007-06-13T10:41:53Z</time>
      </trkpt>
      <trkpt lat="48.34059" lon="-3.89639">
        <ele>255.497452</ele>
        <time>2007-06-13T10:42:01Z</time>
      </trkpt>
      <trkpt lat="48.34083" lon="-3.89575">
        <ele>257.128296</ele>
        <time>2007-06-13T10:42:28Z</time>
      </trkpt>
      <trkpt lat="48.34106" lon="-3.89496">
        <ele>258.334625</ele>
        <time>2007-06-13T10:43:07Z</time>
      </trkpt>
      <trkpt lat="48.34112" lon="-3.89472">
        <ele>258.693115</ele>
        <time>2007-06-13T10:43:21Z</time>
      </trkpt>
      <trkpt lat="48.34115" lon="-3.89455">
        <ele>258.961395</ele>
        <time>2007-06-13T10:43:32Z</time>
      </trkpt>
      <trkpt lat="48.34113" lon="-3.89418">
        <ele>259.89798</ele>
        <time>2007-06-13T10:43:43Z</time>
      </trkpt>
      <trkpt lat="48.34118" lon="-3.89407">
        <ele>260.137238</ele>
        <time>2007-06-13T10:43:56Z</time>
      </trkpt>
      <trkpt lat="48.34134" lon="-3.89364">
        <ele>260.170105</ele>
        <time>2007-06-13T10:44:40Z</time>
      </trkpt>
      <trkpt lat="48.34176" lon="-3.89253">
        <ele>253.435059</ele>
        <time>2007-06-13T10:45:41Z</time>
      </trkpt>
      <trkpt lat="48.34187" lon="-3.89224">
        <ele>252.574005</ele>
        <time>2007-06-13T10:45:57Z</time>
      </trkpt>
      <trkpt lat="48.34194" lon="-3.89208">
        <ele>252.075851</ele>
        <time>2007-06-13T10:46:08Z</time>
      </trkpt>
      <trkpt lat="48.34211" lon="-3.8916">
        <ele>251.292099</ele>
        <time>2007-06-13T10:46:33Z</time>
      </trkpt>
      <trkpt lat="48.34224" lon="-3.89121">
        <ele>250.84697</ele>
        <time>2007-06-13T10:46:53Z</time>
      </trkpt>
      <trkpt lat="48.34231" lon="-3.8909">
        <ele>250.574158</ele>
        <time>2007-06-13T10:47:10Z</time>
      </trkpt>
      <trkpt lat="48.34234" lon="-3.89054">
        <ele>250.638748</ele>
        <time>2007-06-13T10:47:26Z</time>
      </trkpt>
      <trkpt lat="48.34235" lon="-3.89029">
        <ele>250.65448</ele>
        <time>2007-06-13T10:47:37Z</time>
      </trkpt>
      <trkpt lat="48.34236" lon="-3.88986">
        <ele>250.709442</ele>
        <time>2007-06-13T10:47:58Z</time>
      </trkpt>
      <trkpt lat="48.34236" lon="-3.8895">
        <ele>250.495392</ele>
        <time>2007-06-13T10:48:15Z</time>
      </trkpt>
      <trkpt lat="48.34237" lon="-3.8891">
        <ele>250.311127</ele>
        <time>2007-06-13T10:48:32Z</time>
      </trkpt>
      <trkpt lat="48.34238" lon="-3.88882">
        <ele>250.352631</ele>
        <time>2007-06-13T10:48:49Z</time>
      </trkpt>
      <trkpt lat="48.34239" lon="-3.88855">
        <ele>250.331238</ele>
        <time>2007-06-13T10:49:01Z</time>
      </trkpt>
      <trkpt lat="48.34239" lon="-3.88807">
        <ele>249.730804</ele>
        <time>2007-06-13T10:49:24Z</time>
      </trkpt>
      <trkpt lat="48.34244" lon="-3.88756">
        <ele>249.363312</ele>
        <time>2007-06-13T10:49:48Z</time>
      </trkpt>
      <trkpt lat="48.34248" lon="-3.88693">
        <ele>248.871414</ele>
        <time>2007-06-13T10:50:17Z</time>
      </trkpt>
      <trkpt lat="48.34252" lon="-3.88651">
        <ele>248.195847</ele>
        <time>2007-06-13T10:50:37Z</time>
      </trkpt>
      <trkpt lat="48.34258" lon="-3.88617">
        <ele>247.471939</ele>
        <time>2007-06-13T10:50:54Z</time>
      </trkpt>
      <trkpt lat="48.34263" lon="-3.88573">
        <ele>246.960831</ele>
        <time>2007-06-13T10:51:15Z</time>
      </trkpt>
      <trkpt lat="48.34265" lon="-3.88552">
        <ele>246.889786</ele>
        <time>2007-06-13T10:51:35Z</time>
      </trkpt>
      <trkpt lat="48.34269" lon="-3.88525">
        <ele>246.787201</ele>
        <time>2007-06-13T10:51:49Z</time>
      </trkpt>
      <trkpt lat="48.34278" lon="-3.88446">
        <ele>245.68779</ele>
        <time>2007-06-13T10:52:26Z</time>
      </trkpt>
      <trkpt lat="48.34282" lon="-3.88388">
        <ele>244.779114</ele>
        <time>2007-06-13T10:52:55Z</time>
      </trkpt>
      <trkpt lat="48.34287" lon="-3.883">
        <ele>243.674759</ele>
        <time>2007-06-13T10:53:35Z</time>
      </trkpt>
      <trkpt lat="48.34289" lon="-3.88245">
        <ele>243.413651</ele>
        <time>2007-06-13T10:54:01Z</time>
      </trkpt>
      <trkpt lat="48.34293" lon="-3.88202">
        <ele>242.681519</ele>
        <time>2007-06-13T10:54:29Z</time>
      </trkpt>
      <trkpt lat="48.34299" lon="-3.88181">
        <ele>242.286469</ele>
        <time>2007-06-13T10:54:41Z</time>
      </trkpt>
      <trkpt lat="48.34297" lon="-3.88159">
        <ele>242.409424</ele>
        <time>2007-06-13T10:54:52Z</time>
      </trkpt>
      <trkpt lat="48.34298" lon="-3.88116">
        <ele>242.522278</ele>
        <time>2007-06-13T10:55:12Z</time>
      </trkpt>
      <trkpt lat="48.34308" lon="-3.88053">
        <ele>243.079224</ele>
        <time>2007-06-13T10:55:38Z</time>
      </trkpt>
      <trkpt lat="48.34315" lon="-3.88016">
        <ele>242.90242</ele>
        <time>2007-06-13T10:55:55Z</time>
      </trkpt>
      <trkpt lat="48.34317" lon="-3.87986">
        <ele>242.842255</ele>
        <time>2007-06-13T10:56:07Z</time>
      </trkpt>
      <trkpt lat="48.34326" lon="-3.87932">
        <ele>240.96405</ele>
        <time>2007-06-13T10:56:35Z</time>
      </trkpt>
      <trkpt lat="48.34333" lon="-3.87886">
        <ele>239.921127</ele>
        <time>2007-06-13T10:57:01Z</time>
      </trkpt>
      <trkpt lat="48.34337" lon="-3.87843">
        <ele>239.26712</ele>
        <time>2007-06-13T10:57:17Z</time>
      </trkpt>
      <trkpt lat="48.34351" lon="-3.87835">
        <ele>238.640869</ele>
        <time>2007-06-13T10:57:26Z</time>
      </trkpt>
      <trkpt lat="48.34355" lon="-3.87827">
        <ele>238.497131</ele>
        <time>2007-06-13T10:57:36Z</time>
      </trkpt>
      <trkpt lat="48.34372" lon="-3.8777">
        <ele>237.988861</ele>
        <time>2007-06-13T10:58:05Z</time>
      </trkpt>
      <trkpt lat="48.34382" lon="-3.87713">
        <ele>237.52121</ele>
        <time>2007-06-13T10:58:27Z</time>
      </trkpt>
      <trkpt lat="48.34405" lon="-3.87643">
        <ele>235.836319</ele>
        <time>2007-06-13T10:59:09Z</time>
      </trkpt>
      <trkpt lat="48.34435" lon="-3.87563">
        <ele>234.119003</ele>
        <time>2007-06-13T10:59:55Z</time>
      </trkpt>
      <trkpt lat="48.34449" lon="-3.87541">
        <ele>233.186005</ele>
        <time>2007-06-13T11:00:15Z</time>
      </trkpt>
      <trkpt lat="48.34464" lon="-3.87497">
        <ele>232.536118</ele>
        <time>2007-06-13T11:00:33Z</time>
      </trkpt>
      <trkpt lat="48.34483" lon="-3.87437">
        <ele>231.93454</ele>
        <time>2007-06-13T11:01:05Z</time>
      </trkpt>
      <trkpt lat="48.3451" lon="-3.87373">
        <ele>231.230988</ele>
        <time>2007-06-13T11:01:43Z</time>
      </trkpt>
      <trkpt lat="48.34527" lon="-3.87326">
        <ele>230.846695</ele>
        <time>2007-06-13T11:02:14Z</time>
      </trkpt>
      <trkpt lat="48.34572" lon="-3.87275">
        <ele>229.164017</ele>
        <time>2007-06-13T11:02:59Z</time>
      </trkpt>
      <trkpt lat="48.34633" lon="-3.87255">
        <ele>228.504776</ele>
        <time>2007-06-13T11:03:44Z</time>
      </trkpt>
      <trkpt lat="48.34682" lon="-3.87234">
        <ele>229.400208</ele>
        <time>2007-06-13T11:04:22Z</time>
      </trkpt>
      <trkpt lat="48.34738" lon="-3.87215">
        <ele>231.53157</ele>
        <time>2007-06-13T11:05:03Z</time>
      </trkpt>
      <trkpt lat="48.34766" lon="-3.87226">
        <ele>232.35437</ele>
        <time>2007-06-13T11:05:29Z</time>
      </trkpt>
      <trkpt lat="48.34775" lon="-3.87234">
        <ele>232.826569</ele>
        <time>2007-06-13T11:05:49Z</time>
      </trkpt>
      <trkpt lat="48.34811" lon="-3.87269">
        <ele>234.410492</ele>
        <time>2007-06-13T11:06:20Z</time>
      </trkpt>
      <trkpt lat="48.34836" lon="-3.8726">
        <ele>236.436813</ele>
        <time>2007-06-13T11:06:44Z</time>
      </trkpt>
      <trkpt lat="48.34864" lon="-3.87263">
        <ele>239.19516</ele>
        <time>2007-06-13T11:07:15Z</time>
      </trkpt>
      <trkpt lat="48.34885" lon="-3.87261">
        <ele>242.174301</ele>
        <time>2007-06-13T11:07:51Z</time>
      </trkpt>
      <trkpt lat="48.34934" lon="-3.87234">
        <ele>249.750809</ele>
        <time>2007-06-13T11:09:18Z</time>
      </trkpt>
      <trkpt lat="48.34956" lon="-3.87265">
        <ele>252.454971</ele>
        <time>2007-06-13T11:09:47Z</time>
      </trkpt>
      <trkpt lat="48.34966" lon="-3.87276">
        <ele>253.220032</ele>
        <time>2007-06-13T11:10:21Z</time>
      </trkpt>
      <trkpt lat="48.34974" lon="-3.87308">
        <ele>252.698563</ele>
        <time>2007-06-13T11:10:41Z</time>
      </trkpt>
      <trkpt lat="48.34978" lon="-3.87325">
        <ele>252.25473</ele>
        <time>2007-06-13T11:10:45Z</time>
      </trkpt>
      <trkpt lat="48.34995" lon="-3.87352">
        <ele>252.52507</ele>
        <time>2007-06-13T11:10:59Z</time>
      </trkpt>
      <trkpt lat="48.3501" lon="-3.87349">
        <ele>254.824539</ele>
        <time>2007-06-13T11:11:04Z</time>
      </trkpt>
      <trkpt lat="48.34996" lon="-3.87365">
        <ele>251.62767</ele>
        <time>2007-06-13T11:11:07Z</time>
      </trkpt>
      <trkpt lat="48.35016" lon="-3.87392">
        <ele>252.321121</ele>
        <time>2007-06-13T11:11:28Z</time>
      </trkpt>
      <trkpt lat="48.35051" lon="-3.87453">
        <ele>251.146713</ele>
        <time>2007-06-13T11:12:10Z</time>
      </trkpt>
      <trkpt lat="48.35069" lon="-3.87471">
        <ele>250.728973</ele>
        <time>2007-06-13T11:12:42Z</time>
      </trkpt>
      <trkpt lat="48.35101" lon="-3.87497">
        <ele>248.832397</ele>
        <time>2007-06-13T11:13:27Z</time>
      </trkpt>
      <trkpt lat="48.35125" lon="-3.87515">
        <ele>245.64682</ele>
        <time>2007-06-13T11:14:03Z</time>
      </trkpt>
      <trkpt lat="48.35144" lon="-3.87526">
        <ele>243.595459</ele>
        <time>2007-06-13T11:14:41Z</time>
      </trkpt>
      <trkpt lat="48.35138" lon="-3.87552">
        <ele>242.924545</ele>
        <time>2007-06-13T11:15:08Z</time>
      </trkpt>
      <trkpt lat="48.35121" lon="-3.8759">
        <ele>240.649887</ele>
        <time>2007-06-13T11:15:40Z</time>
      </trkpt>
      <trkpt lat="48.35092" lon="-3.87634">
        <ele>238.1548</ele>
        <time>2007-06-13T11:16:21Z</time>
      </trkpt>
      <trkpt lat="48.35067" lon="-3.87662">
        <ele>235.832718</ele>
        <time>2007-06-13T11:17:03Z</time>
      </trkpt>
      <trkpt lat="48.3505" lon="-3.87658">
        <ele>235.431061</ele>
        <time>2007-06-13T11:17:35Z</time>
      </trkpt>
      <trkpt lat="48.35021" lon="-3.87663">
        <ele>233.016769</ele>
        <time>2007-06-13T11:18:08Z</time>
      </trkpt>
      <trkpt lat="48.34973" lon="-3.87719">
        <ele>227.259781</ele>
        <time>2007-06-13T11:18:55Z</time>
      </trkpt>
      <trkpt lat="48.34969" lon="-3.87726">
        <ele>226.626068</ele>
        <time>2007-06-13T11:19:24Z</time>
      </trkpt>
      <trkpt lat="48.34982" lon="-3.877">
        <ele>228.79631</ele>
        <time>2007-06-13T11:20:15Z</time>
      </trkpt>
      <trkpt lat="48.35012" lon="-3.87663">
        <ele>232.339401</ele>
        <time>2007-06-13T11:20:47Z</time>
      </trkpt>
      <trkpt lat="48.34996" lon="-3.8763">
        <ele>233.602219</ele>
        <time>2007-06-13T11:21:11Z</time>
      </trkpt>
      <trkpt lat="48.34991" lon="-3.87618">
        <ele>234.055908</ele>
        <time>2007-06-13T11:21:19Z</time>
      </trkpt>
      <trkpt lat="48.34982" lon="-3.87577">
        <ele>235.839996</ele>
        <time>2007-06-13T11:22:15Z</time>
      </trkpt>
      <trkpt lat="48.34947" lon="-3.87515">
        <ele>236.104034</ele>
        <time>2007-06-13T11:22:55Z</time>
      </trkpt>
      <trkpt lat="48.34909" lon="-3.87464">
        <ele>234.226883</ele>
        <time>2007-06-13T11:23:31Z</time>
      </trkpt>
      <trkpt lat="48.349" lon="-3.87453">
        <ele>233.48671</ele>
        <time>2007-06-13T11:23:36Z</time>
      </trkpt>
      <trkpt lat="48.3489" lon="-3.87425">
        <ele>234.021988</ele>
        <time>2007-06-13T11:23:57Z</time>
      </trkpt>
      <trkpt lat="48.34871" lon="-3.8738">
        <ele>234.90596</ele>
        <time>2007-06-13T11:24:36Z</time>
      </trkpt>
      <trkpt lat="48.34857" lon="-3.87353">
        <ele>234.759552</ele>
        <time>2007-06-13T11:25:04Z</time>
      </trkpt>
      <trkpt lat="48.34843" lon="-3.87339">
        <ele>233.933029</ele>
        <time>2007-06-13T11:28:27Z</time>
      </trkpt>
      <trkpt lat="48.34826" lon="-3.87304">
        <ele>234.539948</ele>
        <time>2007-06-13T11:28:45Z</time>
      </trkpt>
      <trkpt lat="48.34783" lon="-3.87238">
        <ele>233.313507</ele>
        <time>2007-06-13T11:29:35Z</time>
      </trkpt>
      <trkpt lat="48.34736" lon="-3.87181">
        <ele>231.655823</ele>
        <time>2007-06-13T11:30:23Z</time>
      </trkpt>
      <trkpt lat="48.34739" lon="-3.87183">
        <ele>231.72435</ele>
        <time>2007-06-13T11:30:49Z</time>
      </trkpt>
      <trkpt lat="48.34739" lon="-3.87166">
        <ele>231.824265</ele>
        <time>2007-06-13T11:31:15Z</time>
      </trkpt>
      <trkpt lat="48.34769" lon="-3.8706">
        <ele>229.47583</ele>
        <time>2007-06-13T11:32:11Z</time>
      </trkpt>
      <trkpt lat="48.34835" lon="-3.86954">
        <ele>225.818665</ele>
        <time>2007-06-13T11:33:21Z</time>
      </trkpt>
      <trkpt lat="48.3485" lon="-3.86948">
        <ele>225.621857</ele>
        <time>2007-06-13T11:33:30Z</time>
      </trkpt>
      <trkpt lat="48.34868" lon="-3.86939">
        <ele>225.071228</ele>
        <time>2007-06-13T11:33:44Z</time>
      </trkpt>
      <trkpt lat="48.34902" lon="-3.86924">
        <ele>223.80513</ele>
        <time>2007-06-13T11:34:12Z</time>
      </trkpt>
      <trkpt lat="48.34942" lon="-3.86907">
        <ele>222.284073</ele>
        <time>2007-06-13T11:34:42Z</time>
      </trkpt>
      <trkpt lat="48.34981" lon="-3.86893">
        <ele>220.876984</ele>
        <time>2007-06-13T11:35:16Z</time>
      </trkpt>
      <trkpt lat="48.35059" lon="-3.86854">
        <ele>219</ele>
        <time>2007-06-13T11:36:07Z</time>
      </trkpt>
      <trkpt lat="48.35126" lon="-3.86821">
        <ele>219</ele>
        <time>2007-06-13T11:36:55Z</time>
      </trkpt>
      <trkpt lat="48.352" lon="-3.86789">
        <ele>219</ele>
        <time>2007-06-13T11:37:47Z</time>
      </trkpt>
      <trkpt lat="48.35235" lon="-3.86773">
        <ele>219</ele>
        <time>2007-06-13T11:38:18Z</time>
      </trkpt>
      <trkpt lat="48.35251" lon="-3.86768">
        <ele>219.317703</ele>
        <time>2007-06-13T11:38:27Z</time>
      </trkpt>
      <trkpt lat="48.35287" lon="-3.86747">
        <ele>219.954193</ele>
        <time>2007-06-13T11:38:53Z</time>
      </trkpt>
      <trkpt lat="48.3529" lon="-3.8674">
        <ele>219.871277</ele>
        <time>2007-06-13T11:39:10Z</time>
      </trkpt>
      <trkpt lat="48.35303" lon="-3.86707">
        <ele>219.613861</ele>
        <time>2007-06-13T11:39:36Z</time>
      </trkpt>
      <trkpt lat="48.35323" lon="-3.86652">
        <ele>219.776443</ele>
        <time>2007-06-13T11:40:07Z</time>
      </trkpt>
      <trkpt lat="48.35313" lon="-3.86573">
        <ele>219.458694</ele>
        <time>2007-06-13T11:40:46Z</time>
      </trkpt>
      <trkpt lat="48.35314" lon="-3.8656">
        <ele>219.478729</ele>
        <time>2007-06-13T11:41:08Z</time>
      </trkpt>
      <trkpt lat="48.35319" lon="-3.86514">
        <ele>219.788361</ele>
        <time>2007-06-13T11:41:59Z</time>
      </trkpt>
      <trkpt lat="48.35339" lon="-3.86439">
        <ele>220.612564</ele>
        <time>2007-06-13T11:42:46Z</time>
      </trkpt>
      <trkpt lat="48.35342" lon="-3.86426">
        <ele>220.835999</ele>
        <time>2007-06-13T11:43:19Z</time>
      </trkpt>
      <trkpt lat="48.35365" lon="-3.86413">
        <ele>221.118439</ele>
        <time>2007-06-13T11:43:47Z</time>
      </trkpt>
      <trkpt lat="48.35364" lon="-3.8641">
        <ele>221.157242</ele>
        <time>2007-06-13T11:44:25Z</time>
      </trkpt>
      <trkpt lat="48.3538" lon="-3.86384">
        <ele>221.572952</ele>
        <time>2007-06-13T11:45:45Z</time>
      </trkpt>
      <trkpt lat="48.35381" lon="-3.86383">
        <ele>221.590652</ele>
        <time>2007-06-13T11:46:28Z</time>
      </trkpt>
      <trkpt lat="48.35397" lon="-3.86373">
        <ele>221.850586</ele>
        <time>2007-06-13T11:53:10Z</time>
      </trkpt>
      <trkpt lat="48.35472" lon="-3.86389">
        <ele>222.312866</ele>
        <time>2007-06-13T11:54:12Z</time>
      </trkpt>
      <trkpt lat="48.35488" lon="-3.86392">
        <ele>222.078781</ele>
        <time>2007-06-13T11:54:32Z</time>
      </trkpt>
      <trkpt lat="48.35564" lon="-3.86406">
        <ele>220.089981</ele>
        <time>2007-06-13T11:55:28Z</time>
      </trkpt>
      <trkpt lat="48.35658" lon="-3.86439">
        <ele>223.616806</ele>
        <time>2007-06-13T11:56:37Z</time>
      </trkpt>
      <trkpt lat="48.3569" lon="-3.86467">
        <ele>225.204361</ele>
        <time>2007-06-13T11:57:19Z</time>
      </trkpt>
      <trkpt lat="48.3572" lon="-3.86492">
        <ele>225.542496</ele>
        <time>2007-06-13T11:58:00Z</time>
      </trkpt>
      <trkpt lat="48.35765" lon="-3.86531">
        <ele>225.1884</ele>
        <time>2007-06-13T11:58:49Z</time>
      </trkpt>
      <trkpt lat="48.35826" lon="-3.86579">
        <ele>222.582916</ele>
        <time>2007-06-13T11:59:36Z</time>
      </trkpt>
      <trkpt lat="48.35839" lon="-3.86587">
        <ele>222.464157</ele>
        <time>2007-06-13T11:59:45Z</time>
      </trkpt>
      <trkpt lat="48.35871" lon="-3.8661">
        <ele>223.146484</ele>
        <time>2007-06-13T12:00:09Z</time>
      </trkpt>
      <trkpt lat="48.35894" lon="-3.86628">
        <ele>223.412537</ele>
        <time>2007-06-13T12:00:33Z</time>
      </trkpt>
      <trkpt lat="48.35953" lon="-3.86661">
        <ele>224.579483</ele>
        <time>2007-06-13T12:01:18Z</time>
      </trkpt>
      <trkpt lat="48.35992" lon="-3.86682">
        <ele>225.117508</ele>
        <time>2007-06-13T12:01:48Z</time>
      </trkpt>
      <trkpt lat="48.36012" lon="-3.86693">
        <ele>225.442596</ele>
        <time>2007-06-13T12:02:14Z</time>
      </trkpt>
      <trkpt lat="48.36081" lon="-3.86734">
        <ele>226.013046</ele>
        <time>2007-06-13T12:03:06Z</time>
      </trkpt>
      <trkpt lat="48.36108" lon="-3.86747">
        <ele>226.719955</ele>
        <time>2007-06-13T12:03:26Z</time>
      </trkpt>
      <trkpt lat="48.36166" lon="-3.86775">
        <ele>227.067535</ele>
        <time>2007-06-13T12:04:11Z</time>
      </trkpt>
      <trkpt lat="48.36209" lon="-3.86835">
        <ele>224.339951</ele>
        <time>2007-06-13T12:05:01Z</time>
      </trkpt>
      <trkpt lat="48.36188" lon="-3.86873">
        <ele>222.76825</ele>
        <time>2007-06-13T12:05:34Z</time>
      </trkpt>
      <trkpt lat="48.36187" lon="-3.86888">
        <ele>222.544418</ele>
        <time>2007-06-13T12:05:57Z</time>
      </trkpt>
      <trkpt lat="48.36176" lon="-3.86954">
        <ele>222</ele>
        <time>2007-06-13T12:06:30Z</time>
      </trkpt>
      <trkpt lat="48.36161" lon="-3.87059">
        <ele>223</ele>
        <time>2007-06-13T12:07:21Z</time>
      </trkpt>
      <trkpt lat="48.3614" lon="-3.87216">
        <ele>224.160355</ele>
        <time>2007-06-13T12:08:35Z</time>
      </trkpt>
      <trkpt lat="48.36129" lon="-3.87276">
        <ele>225.960114</ele>
        <time>2007-06-13T12:09:04Z</time>
      </trkpt>
      <trkpt lat="48.36117" lon="-3.87304">
        <ele>227.234177</ele>
        <time>2007-06-13T12:09:21Z</time>
      </trkpt>
      <trkpt lat="48.3609" lon="-3.87358">
        <ele>228.249405</ele>
        <time>2007-06-13T12:09:54Z</time>
      </trkpt>
      <trkpt lat="48.36071" lon="-3.87405">
        <ele>229.314819</ele>
        <time>2007-06-13T12:10:16Z</time>
      </trkpt>
      <trkpt lat="48.3605" lon="-3.87467">
        <ele>230.796906</ele>
        <time>2007-06-13T12:10:50Z</time>
      </trkpt>
      <trkpt lat="48.36026" lon="-3.8754">
        <ele>231.161728</ele>
        <time>2007-06-13T12:11:41Z</time>
      </trkpt>
      <trkpt lat="48.36008" lon="-3.8755">
        <ele>230.729385</ele>
        <time>2007-06-13T12:12:06Z</time>
      </trkpt>
      <trkpt lat="48.35962" lon="-3.87577">
        <ele>229.233429</ele>
        <time>2007-06-13T12:12:44Z</time>
      </trkpt>
      <trkpt lat="48.35932" lon="-3.87603">
        <ele>229.436005</ele>
        <time>2007-06-13T12:13:07Z</time>
      </trkpt>
      <trkpt lat="48.35925" lon="-3.87621">
        <ele>229.971771</ele>
        <time>2007-06-13T12:13:17Z</time>
      </trkpt>
      <trkpt lat="48.35883" lon="-3.87667">
        <ele>229.382523</ele>
        <time>2007-06-13T12:13:43Z</time>
      </trkpt>
      <trkpt lat="48.35874" lon="-3.87675">
        <ele>228.963562</ele>
        <time>2007-06-13T12:13:52Z</time>
      </trkpt>
      <trkpt lat="48.3587" lon="-3.87678">
        <ele>228.808136</ele>
        <time>2007-06-13T12:14:02Z</time>
      </trkpt>
      <trkpt lat="48.3585" lon="-3.87675">
        <ele>228.479996</ele>
        <time>2007-06-13T12:14:28Z</time>
      </trkpt>
      <trkpt lat="48.35846" lon="-3.87683">
        <ele>228.689285</ele>
        <time>2007-06-13T12:14:50Z</time>
      </trkpt>
      <trkpt lat="48.35817" lon="-3.87655">
        <ele>228.611557</ele>
        <time>2007-06-13T12:15:47Z</time>
      </trkpt>
      <trkpt lat="48.35783" lon="-3.876">
        <ele>229.536072</ele>
        <time>2007-06-13T12:16:23Z</time>
      </trkpt>
      <trkpt lat="48.35737" lon="-3.87567">
        <ele>229.571594</ele>
        <time>2007-06-13T12:16:57Z</time>
      </trkpt>
      <trkpt lat="48.35708" lon="-3.8755">
        <ele>228.654205</ele>
        <time>2007-06-13T12:17:15Z</time>
      </trkpt>
      <trkpt lat="48.35697" lon="-3.87549">
        <ele>228.431503</ele>
        <time>2007-06-13T12:17:25Z</time>
      </trkpt>
      <trkpt lat="48.3565" lon="-3.87537">
        <ele>227.973724</ele>
        <time>2007-06-13T12:17:56Z</time>
      </trkpt>
      <trkpt lat="48.35604" lon="-3.87535">
        <ele>226.185516</ele>
        <time>2007-06-13T12:18:31Z</time>
      </trkpt>
      <trkpt lat="48.35563" lon="-3.87543">
        <ele>224.546646</ele>
        <time>2007-06-13T12:19:01Z</time>
      </trkpt>
      <trkpt lat="48.35521" lon="-3.87548">
        <ele>223.601715</ele>
        <time>2007-06-13T12:19:28Z</time>
      </trkpt>
      <trkpt lat="48.35504" lon="-3.87558">
        <ele>223.402832</ele>
        <time>2007-06-13T12:19:39Z</time>
      </trkpt>
      <trkpt lat="48.35499" lon="-3.87565">
        <ele>223.426559</ele>
        <time>2007-06-13T12:20:16Z</time>
      </trkpt>
      <trkpt lat="48.35483" lon="-3.87578">
        <ele>223.300888</ele>
        <time>2007-06-13T12:20:38Z</time>
      </trkpt>
      <trkpt lat="48.35476" lon="-3.87624">
        <ele>223.896744</ele>
        <time>2007-06-13T12:21:01Z</time>
      </trkpt>
      <trkpt lat="48.35478" lon="-3.87681">
        <ele>225.023544</ele>
        <time>2007-06-13T12:21:23Z</time>
      </trkpt>
      <trkpt lat="48.35485" lon="-3.87762">
        <ele>226.555588</ele>
        <time>2007-06-13T12:22:00Z</time>
      </trkpt>
      <trkpt lat="48.35474" lon="-3.8778">
        <ele>226.396667</ele>
        <time>2007-06-13T12:22:21Z</time>
      </trkpt>
      <trkpt lat="48.35479" lon="-3.87778">
        <ele>226.502945</ele>
        <time>2007-06-13T12:22:41Z</time>
      </trkpt>
      <trkpt lat="48.35513" lon="-3.87789">
        <ele>227.331482</ele>
        <time>2007-06-13T12:23:13Z</time>
      </trkpt>
      <trkpt lat="48.35518" lon="-3.87792">
        <ele>227.445221</ele>
        <time>2007-06-13T12:23:28Z</time>
      </trkpt>
      <trkpt lat="48.35532" lon="-3.87794">
        <ele>227.745834</ele>
        <time>2007-06-13T12:23:43Z</time>
      </trkpt>
      <trkpt lat="48.35549" lon="-3.87818">
        <ele>227.55014</ele>
        <time>2007-06-13T12:24:07Z</time>
      </trkpt>
      <trkpt lat="48.35541" lon="-3.87825">
        <ele>227.091019</ele>
        <time>2007-06-13T12:24:20Z</time>
      </trkpt>
      <trkpt lat="48.35558" lon="-3.87847">
        <ele>227.208176</ele>
        <time>2007-06-13T12:25:57Z</time>
      </trkpt>
      <trkpt lat="48.35571" lon="-3.87864">
        <ele>227.450027</ele>
        <time>2007-06-13T12:26:24Z</time>
      </trkpt>
      <trkpt lat="48.35573" lon="-3.87891">
        <ele>227.457352</ele>
        <time>2007-06-13T12:26:41Z</time>
      </trkpt>
      <trkpt lat="48.35578" lon="-3.87933">
        <ele>227.781952</ele>
        <time>2007-06-13T12:27:11Z</time>
      </trkpt>
      <trkpt lat="48.35589" lon="-3.87975">
        <ele>227.975296</ele>
        <time>2007-06-13T12:27:44Z</time>
      </trkpt>
      <trkpt lat="48.356" lon="-3.88006">
        <ele>228.465393</ele>
        <time>2007-06-13T12:28:25Z</time>
      </trkpt>
      <trkpt lat="48.35602" lon="-3.88012">
        <ele>228.632919</ele>
        <time>2007-06-13T12:29:09Z</time>
      </trkpt>
      <trkpt lat="48.35618" lon="-3.88058">
        <ele>228.661758</ele>
        <time>2007-06-13T12:29:45Z</time>
      </trkpt>
      <trkpt lat="48.35636" lon="-3.88101">
        <ele>229.254822</ele>
        <time>2007-06-13T12:30:23Z</time>
      </trkpt>
      <trkpt lat="48.35645" lon="-3.88123">
        <ele>229.497147</ele>
        <time>2007-06-13T12:30:58Z</time>
      </trkpt>
      <trkpt lat="48.35651" lon="-3.8814">
        <ele>229.400574</ele>
        <time>2007-06-13T12:31:26Z</time>
      </trkpt>
      <trkpt lat="48.35663" lon="-3.88166">
        <ele>229.139023</ele>
        <time>2007-06-13T12:31:50Z</time>
      </trkpt>
      <trkpt lat="48.35679" lon="-3.88186">
        <ele>228.778091</ele>
        <time>2007-06-13T12:32:18Z</time>
      </trkpt>
      <trkpt lat="48.35695" lon="-3.88205">
        <ele>228.569839</ele>
        <time>2007-06-13T12:32:39Z</time>
      </trkpt>
      <trkpt lat="48.35727" lon="-3.88238">
        <ele>228.948425</ele>
        <time>2007-06-13T12:33:13Z</time>
      </trkpt>
      <trkpt lat="48.35777" lon="-3.88277">
        <ele>227.992203</ele>
        <time>2007-06-13T12:33:55Z</time>
      </trkpt>
      <trkpt lat="48.35816" lon="-3.88262">
        <ele>228.041595</ele>
        <time>2007-06-13T12:34:29Z</time>
      </trkpt>
      <trkpt lat="48.35825" lon="-3.88252">
        <ele>228.01387</ele>
        <time>2007-06-13T12:34:53Z</time>
      </trkpt>
      <trkpt lat="48.35846" lon="-3.88214">
        <ele>228.116959</ele>
        <time>2007-06-13T12:35:21Z</time>
      </trkpt>
      <trkpt lat="48.35857" lon="-3.88198">
        <ele>227.842026</ele>
        <time>2007-06-13T12:35:42Z</time>
      </trkpt>
      <trkpt lat="48.35866" lon="-3.88181">
        <ele>227.430176</ele>
        <time>2007-06-13T12:35:53Z</time>
      </trkpt>
      <trkpt lat="48.35871" lon="-3.88143">
        <ele>228.159149</ele>
        <time>2007-06-13T12:36:20Z</time>
      </trkpt>
      <trkpt lat="48.35894" lon="-3.88101">
        <ele>227.927704</ele>
        <time>2007-06-13T12:36:44Z</time>
      </trkpt>
      <trkpt lat="48.35918" lon="-3.88082">
        <ele>227.236053</ele>
        <time>2007-06-13T12:37:04Z</time>
      </trkpt>
      <trkpt lat="48.35917" lon="-3.88071">
        <ele>227.244156</ele>
        <time>2007-06-13T12:37:14Z</time>
      </trkpt>
      <trkpt lat="48.35922" lon="-3.88052">
        <ele>226.94368</ele>
        <time>2007-06-13T12:37:19Z</time>
      </trkpt>
      <trkpt lat="48.35917" lon="-3.88026">
        <ele>227.194229</ele>
        <time>2007-06-13T12:37:32Z</time>
      </trkpt>
      <trkpt lat="48.35891" lon="-3.87963">
        <ele>228.343704</ele>
        <time>2007-06-13T12:38:11Z</time>
      </trkpt>
      <trkpt lat="48.35887" lon="-3.87916">
        <ele>228.952652</ele>
        <time>2007-06-13T12:38:40Z</time>
      </trkpt>
      <trkpt lat="48.35915" lon="-3.87916">
        <ele>228.781952</ele>
        <time>2007-06-13T12:39:04Z</time>
      </trkpt>
      <trkpt lat="48.35946" lon="-3.87923">
        <ele>228.484116</ele>
        <time>2007-06-13T12:39:32Z</time>
      </trkpt>
      <trkpt lat="48.35978" lon="-3.87931">
        <ele>228.275803</ele>
        <time>2007-06-13T12:40:07Z</time>
      </trkpt>
      <trkpt lat="48.35992" lon="-3.87935">
        <ele>228.06929</ele>
        <time>2007-06-13T12:41:22Z</time>
      </trkpt>
      <trkpt lat="48.36013" lon="-3.87929">
        <ele>228.059967</ele>
        <time>2007-06-13T12:41:46Z</time>
      </trkpt>
      <trkpt lat="48.36031" lon="-3.87924">
        <ele>227.945663</ele>
        <time>2007-06-13T12:42:08Z</time>
      </trkpt>
      <trkpt lat="48.36062" lon="-3.87916">
        <ele>227.86203</ele>
        <time>2007-06-13T12:42:39Z</time>
      </trkpt>
      <trkpt lat="48.36077" lon="-3.87916">
        <ele>227.634552</ele>
        <time>2007-06-13T12:42:48Z</time>
      </trkpt>
      <trkpt lat="48.36092" lon="-3.87916">
        <ele>227.718033</ele>
        <time>2007-06-13T12:43:06Z</time>
      </trkpt>
      <trkpt lat="48.36133" lon="-3.87909">
        <ele>228.043594</ele>
        <time>2007-06-13T12:43:48Z</time>
      </trkpt>
      <trkpt lat="48.36171" lon="-3.87877">
        <ele>227.754822</ele>
        <time>2007-06-13T12:44:20Z</time>
      </trkpt>
      <trkpt lat="48.36208" lon="-3.87815">
        <ele>228.516846</ele>
        <time>2007-06-13T12:44:52Z</time>
      </trkpt>
      <trkpt lat="48.36219" lon="-3.87744">
        <ele>228.202621</ele>
        <time>2007-06-13T12:45:25Z</time>
      </trkpt>
      <trkpt lat="48.36229" lon="-3.87703">
        <ele>228.466949</ele>
        <time>2007-06-13T12:45:50Z</time>
      </trkpt>
      <trkpt lat="48.36258" lon="-3.87682">
        <ele>228.200455</ele>
        <time>2007-06-13T12:46:22Z</time>
      </trkpt>
      <trkpt lat="48.36297" lon="-3.8767">
        <ele>228.537918</ele>
        <time>2007-06-13T12:46:58Z</time>
      </trkpt>
      <trkpt lat="48.3632" lon="-3.8767">
        <ele>228.659454</ele>
        <time>2007-06-13T12:47:26Z</time>
      </trkpt>
      <trkpt lat="48.36353" lon="-3.87673">
        <ele>228.715958</ele>
        <time>2007-06-13T12:47:55Z</time>
      </trkpt>
      <trkpt lat="48.3638" lon="-3.8768">
        <ele>228.521576</ele>
        <time>2007-06-13T12:48:16Z</time>
      </trkpt>
      <trkpt lat="48.36393" lon="-3.87681">
        <ele>228.568314</ele>
        <time>2007-06-13T12:48:29Z</time>
      </trkpt>
      <trkpt lat="48.36432" lon="-3.8768">
        <ele>228.644119</ele>
        <time>2007-06-13T12:49:00Z</time>
      </trkpt>
      <trkpt lat="48.36485" lon="-3.87679">
        <ele>229.223541</ele>
        <time>2007-06-13T12:49:35Z</time>
      </trkpt>
      <trkpt lat="48.36519" lon="-3.8767">
        <ele>229.282837</ele>
        <time>2007-06-13T12:50:04Z</time>
      </trkpt>
      <trkpt lat="48.36553" lon="-3.87687">
        <ele>229</ele>
        <time>2007-06-13T12:50:36Z</time>
      </trkpt>
      <trkpt lat="48.36604" lon="-3.87706">
        <ele>228.570068</ele>
        <time>2007-06-13T12:51:11Z</time>
      </trkpt>
      <trkpt lat="48.36637" lon="-3.87744">
        <ele>228</ele>
        <time>2007-06-13T12:51:40Z</time>
      </trkpt>
      <trkpt lat="48.36691" lon="-3.87829">
        <ele>228.737289</ele>
        <time>2007-06-13T12:52:30Z</time>
      </trkpt>
      <trkpt lat="48.36722" lon="-3.87879">
        <ele>229.357224</ele>
        <time>2007-06-13T12:52:58Z</time>
      </trkpt>
      <trkpt lat="48.36752" lon="-3.87921">
        <ele>229.987244</ele>
        <time>2007-06-13T12:53:21Z</time>
      </trkpt>
      <trkpt lat="48.36767" lon="-3.87947">
        <ele>230</ele>
        <time>2007-06-13T12:53:42Z</time>
      </trkpt>
      <trkpt lat="48.3677" lon="-3.87964">
        <ele>230</ele>
        <time>2007-06-13T12:54:02Z</time>
      </trkpt>
      <trkpt lat="48.36757" lon="-3.87998">
        <ele>230</ele>
        <time>2007-06-13T12:54:26Z</time>
      </trkpt>
      <trkpt lat="48.36748" lon="-3.88031">
        <ele>230</ele>
        <time>2007-06-13T12:54:44Z</time>
      </trkpt>
      <trkpt lat="48.36748" lon="-3.88126">
        <ele>230</ele>
        <time>2007-06-13T12:55:31Z</time>
      </trkpt>
      <trkpt lat="48.36748" lon="-3.88156">
        <ele>230</ele>
        <time>2007-06-13T12:55:47Z</time>
      </trkpt>
      <trkpt lat="48.36751" lon="-3.88237">
        <ele>230</ele>
        <time>2007-06-13T12:56:33Z</time>
      </trkpt>
      <trkpt lat="48.36755" lon="-3.88298">
        <ele>230.13559</ele>
        <time>2007-06-13T12:57:08Z</time>
      </trkpt>
      <trkpt lat="48.36762" lon="-3.88443">
        <ele>231.778717</ele>
        <time>2007-06-13T12:58:18Z</time>
      </trkpt>
      <trkpt lat="48.36765" lon="-3.88516">
        <ele>231.947617</ele>
        <time>2007-06-13T12:58:53Z</time>
      </trkpt>
      <trkpt lat="48.36766" lon="-3.88562">
        <ele>232.024796</ele>
        <time>2007-06-13T12:59:17Z</time>
      </trkpt>
      <trkpt lat="48.36772" lon="-3.88652">
        <ele>232.248917</ele>
        <time>2007-06-13T12:59:57Z</time>
      </trkpt>
      <trkpt lat="48.36765" lon="-3.88706">
        <ele>232.482422</ele>
        <time>2007-06-13T13:00:36Z</time>
      </trkpt>
      <trkpt lat="48.36729" lon="-3.88762">
        <ele>232.618835</ele>
        <time>2007-06-13T13:01:16Z</time>
      </trkpt>
      <trkpt lat="48.3672" lon="-3.88774">
        <ele>232.648926</ele>
        <time>2007-06-13T13:01:32Z</time>
      </trkpt>
      <trkpt lat="48.36683" lon="-3.88852">
        <ele>233.125214</ele>
        <time>2007-06-13T13:02:18Z</time>
      </trkpt>
      <trkpt lat="48.36667" lon="-3.88964">
        <ele>232.998383</ele>
        <time>2007-06-13T13:03:12Z</time>
      </trkpt>
      <trkpt lat="48.36654" lon="-3.89002">
        <ele>232.17952</ele>
        <time>2007-06-13T13:03:46Z</time>
      </trkpt>
      <trkpt lat="48.36614" lon="-3.8903">
        <ele>230.607101</ele>
        <time>2007-06-13T13:04:19Z</time>
      </trkpt>
      <trkpt lat="48.36542" lon="-3.89065">
        <ele>229.334442</ele>
        <time>2007-06-13T13:05:15Z</time>
      </trkpt>
      <trkpt lat="48.36492" lon="-3.8908">
        <ele>229.207748</ele>
        <time>2007-06-13T13:05:52Z</time>
      </trkpt>
      <trkpt lat="48.36424" lon="-3.8911">
        <ele>229.117538</ele>
        <time>2007-06-13T13:06:45Z</time>
      </trkpt>
      <trkpt lat="48.36341" lon="-3.89155">
        <ele>228.431564</ele>
        <time>2007-06-13T13:07:50Z</time>
      </trkpt>
      <trkpt lat="48.3633" lon="-3.89164">
        <ele>228.278946</ele>
        <time>2007-06-13T13:08:07Z</time>
      </trkpt>
      <trkpt lat="48.36307" lon="-3.89184">
        <ele>228.15567</ele>
        <time>2007-06-13T13:08:34Z</time>
      </trkpt>
      <trkpt lat="48.36271" lon="-3.8922">
        <ele>228.772415</ele>
        <time>2007-06-13T13:09:07Z</time>
      </trkpt>
      <trkpt lat="48.36245" lon="-3.89243">
        <ele>230.02272</ele>
        <time>2007-06-13T13:09:29Z</time>
      </trkpt>
      <trkpt lat="48.36225" lon="-3.89264">
        <ele>230.733215</ele>
        <time>2007-06-13T13:09:47Z</time>
      </trkpt>
      <trkpt lat="48.36181" lon="-3.89327">
        <ele>232.614212</ele>
        <time>2007-06-13T13:10:34Z</time>
      </trkpt>
      <trkpt lat="48.36164" lon="-3.89366">
        <ele>233.504547</ele>
        <time>2007-06-13T13:11:08Z</time>
      </trkpt>
      <trkpt lat="48.36142" lon="-3.89386">
        <ele>234.315765</ele>
        <time>2007-06-13T13:11:28Z</time>
      </trkpt>
      <trkpt lat="48.3611" lon="-3.8941">
        <ele>234.857697</ele>
        <time>2007-06-13T13:12:01Z</time>
      </trkpt>
      <trkpt lat="48.36037" lon="-3.89447">
        <ele>234.364487</ele>
        <time>2007-06-13T13:13:00Z</time>
      </trkpt>
      <trkpt lat="48.36016" lon="-3.89451">
        <ele>233.863129</ele>
        <time>2007-06-13T13:13:24Z</time>
      </trkpt>
      <trkpt lat="48.35965" lon="-3.89469">
        <ele>232.642929</ele>
        <time>2007-06-13T13:14:08Z</time>
      </trkpt>
      <trkpt lat="48.35953" lon="-3.89492">
        <ele>232.487762</ele>
        <time>2007-06-13T13:14:36Z</time>
      </trkpt>
      <trkpt lat="48.3596" lon="-3.89489">
        <ele>232.738525</ele>
        <time>2007-06-13T13:14:47Z</time>
      </trkpt>
      <trkpt lat="48.35952" lon="-3.89491">
        <ele>232.455505</ele>
        <time>2007-06-13T13:14:56Z</time>
      </trkpt>
      <trkpt lat="48.35943" lon="-3.89522">
        <ele>232.640686</ele>
        <time>2007-06-13T13:15:17Z</time>
      </trkpt>
      <trkpt lat="48.35934" lon="-3.89539">
        <ele>232.417145</ele>
        <time>2007-06-13T13:15:43Z</time>
      </trkpt>
      <trkpt lat="48.35891" lon="-3.89548">
        <ele>230.536758</ele>
        <time>2007-06-13T13:16:19Z</time>
      </trkpt>
      <trkpt lat="48.35858" lon="-3.89566">
        <ele>229.125931</ele>
        <time>2007-06-13T13:16:56Z</time>
      </trkpt>
      <trkpt lat="48.35866" lon="-3.89633">
        <ele>229.237961</ele>
        <time>2007-06-13T13:17:38Z</time>
      </trkpt>
      <trkpt lat="48.35872" lon="-3.89663">
        <ele>229.433044</ele>
        <time>2007-06-13T13:18:08Z</time>
      </trkpt>
      <trkpt lat="48.35902" lon="-3.89635">
        <ele>231.215515</ele>
        <time>2007-06-13T13:18:53Z</time>
      </trkpt>
      <trkpt lat="48.3593" lon="-3.89598">
        <ele>232.390701</ele>
        <time>2007-06-13T13:19:28Z</time>
      </trkpt>
      <trkpt lat="48.35945" lon="-3.89527">
        <ele>232.780579</ele>
        <time>2007-06-13T13:20:14Z</time>
      </trkpt>
      <trkpt lat="48.35972" lon="-3.89475">
        <ele>233.02533</ele>
        <time>2007-06-13T13:20:52Z</time>
      </trkpt>
      <trkpt lat="48.36015" lon="-3.89452">
        <ele>233.861115</ele>
        <time>2007-06-13T13:21:32Z</time>
      </trkpt>
      <trkpt lat="48.36083" lon="-3.89425">
        <ele>234.908325</ele>
        <time>2007-06-13T13:22:22Z</time>
      </trkpt>
      <trkpt lat="48.36111" lon="-3.8941">
        <ele>234.863785</ele>
        <time>2007-06-13T13:22:44Z</time>
      </trkpt>
      <trkpt lat="48.36145" lon="-3.89387">
        <ele>234.246033</ele>
        <time>2007-06-13T13:23:14Z</time>
      </trkpt>
      <trkpt lat="48.36171" lon="-3.89358">
        <ele>233.232773</ele>
        <time>2007-06-13T13:23:36Z</time>
      </trkpt>
      <trkpt lat="48.36185" lon="-3.89328">
        <ele>232.418671</ele>
        <time>2007-06-13T13:23:57Z</time>
      </trkpt>
      <trkpt lat="48.36208" lon="-3.89283">
        <ele>231.110992</ele>
        <time>2007-06-13T13:24:27Z</time>
      </trkpt>
      <trkpt lat="48.36236" lon="-3.89282">
        <ele>229.804077</ele>
        <time>2007-06-13T13:24:55Z</time>
      </trkpt>
      <trkpt lat="48.36255" lon="-3.89311">
        <ele>227.780991</ele>
        <time>2007-06-13T13:25:22Z</time>
      </trkpt>
      <trkpt lat="48.36257" lon="-3.89313">
        <ele>227.581116</ele>
        <time>2007-06-13T13:25:57Z</time>
      </trkpt>
      <trkpt lat="48.36257" lon="-3.89312">
        <ele>227.583649</ele>
        <time>2007-06-13T13:26:07Z</time>
      </trkpt>
      <trkpt lat="48.36258" lon="-3.89312">
        <ele>227.440842</ele>
        <time>2007-06-13T13:43:14Z</time>
      </trkpt>
      <trkpt lat="48.36239" lon="-3.89283">
        <ele>229.56282</ele>
        <time>2007-06-13T13:45:13Z</time>
      </trkpt>
      <trkpt lat="48.36232" lon="-3.89253">
        <ele>230.703674</ele>
        <time>2007-06-13T13:45:44Z</time>
      </trkpt>
      <trkpt lat="48.36277" lon="-3.89208">
        <ele>228.609924</ele>
        <time>2007-06-13T13:46:28Z</time>
      </trkpt>
      <trkpt lat="48.36344" lon="-3.89151">
        <ele>228.534546</ele>
        <time>2007-06-13T13:47:36Z</time>
      </trkpt>
      <trkpt lat="48.36419" lon="-3.89113">
        <ele>229.173553</ele>
        <time>2007-06-13T13:48:50Z</time>
      </trkpt>
      <trkpt lat="48.36501" lon="-3.89074">
        <ele>229.401627</ele>
        <time>2007-06-13T13:50:02Z</time>
      </trkpt>
      <trkpt lat="48.36545" lon="-3.89064">
        <ele>229.349274</ele>
        <time>2007-06-13T13:50:39Z</time>
      </trkpt>
      <trkpt lat="48.36558" lon="-3.89069">
        <ele>228.856277</ele>
        <time>2007-06-13T13:50:48Z</time>
      </trkpt>
      <trkpt lat="48.36575" lon="-3.89062">
        <ele>228.96283</ele>
        <time>2007-06-13T13:51:05Z</time>
      </trkpt>
      <trkpt lat="48.36587" lon="-3.89054">
        <ele>229.240463</ele>
        <time>2007-06-13T13:51:18Z</time>
      </trkpt>
      <trkpt lat="48.36618" lon="-3.89029">
        <ele>230.728699</ele>
        <time>2007-06-13T13:51:44Z</time>
      </trkpt>
      <trkpt lat="48.36642" lon="-3.89009">
        <ele>232.000824</ele>
        <time>2007-06-13T13:52:03Z</time>
      </trkpt>
      <trkpt lat="48.36671" lon="-3.88946">
        <ele>233.349197</ele>
        <time>2007-06-13T13:52:42Z</time>
      </trkpt>
      <trkpt lat="48.36687" lon="-3.88854">
        <ele>233.236267</ele>
        <time>2007-06-13T13:53:26Z</time>
      </trkpt>
      <trkpt lat="48.36699" lon="-3.88794">
        <ele>232.527405</ele>
        <time>2007-06-13T13:53:51Z</time>
      </trkpt>
      <trkpt lat="48.36704" lon="-3.88771">
        <ele>232.258057</ele>
        <time>2007-06-13T13:54:03Z</time>
      </trkpt>
      <trkpt lat="48.36713" lon="-3.88766">
        <ele>232.369583</ele>
        <time>2007-06-13T13:54:11Z</time>
      </trkpt>
      <trkpt lat="48.36726" lon="-3.88753">
        <ele>232.427277</ele>
        <time>2007-06-13T13:54:28Z</time>
      </trkpt>
      <trkpt lat="48.36755" lon="-3.8872">
        <ele>232.477234</ele>
        <time>2007-06-13T13:55:07Z</time>
      </trkpt>
      <trkpt lat="48.36763" lon="-3.88714">
        <ele>232.558304</ele>
        <time>2007-06-13T13:55:20Z</time>
      </trkpt>
      <trkpt lat="48.36777" lon="-3.88709">
        <ele>232.774521</ele>
        <time>2007-06-13T13:56:29Z</time>
      </trkpt>
      <trkpt lat="48.36801" lon="-3.88732">
        <ele>233.626678</ele>
        <time>2007-06-13T13:56:51Z</time>
      </trkpt>
      <trkpt lat="48.36876" lon="-3.88796">
        <ele>236.178055</ele>
        <time>2007-06-13T13:57:55Z</time>
      </trkpt>
      <trkpt lat="48.36941" lon="-3.88855">
        <ele>237</ele>
        <time>2007-06-13T13:58:52Z</time>
      </trkpt>
      <trkpt lat="48.37012" lon="-3.88926">
        <ele>237</ele>
        <time>2007-06-13T13:59:57Z</time>
      </trkpt>
      <trkpt lat="48.37031" lon="-3.88947">
        <ele>237</ele>
        <time>2007-06-13T14:00:29Z</time>
      </trkpt>
      <trkpt lat="48.37056" lon="-3.88962">
        <ele>237</ele>
        <time>2007-06-13T14:00:56Z</time>
      </trkpt>
      <trkpt lat="48.37058" lon="-3.88964">
        <ele>237</ele>
        <time>2007-06-13T14:01:19Z</time>
      </trkpt>
      <trkpt lat="48.37077" lon="-3.88975">
        <ele>237</ele>
        <time>2007-06-13T14:01:36Z</time>
      </trkpt>
      <trkpt lat="48.3715" lon="-3.89019">
        <ele>237.322495</ele>
        <time>2007-06-13T14:02:36Z</time>
      </trkpt>
      <trkpt lat="48.37156" lon="-3.89023">
        <ele>237.511353</ele>
        <time>2007-06-13T14:02:59Z</time>
      </trkpt>
      <trkpt lat="48.37175" lon="-3.89035">
        <ele>238.07428</ele>
        <time>2007-06-13T14:03:14Z</time>
      </trkpt>
      <trkpt lat="48.37217" lon="-3.89061">
        <ele>239.50943</ele>
        <time>2007-06-13T14:03:56Z</time>
      </trkpt>
      <trkpt lat="48.37276" lon="-3.89095">
        <ele>240.950653</ele>
        <time>2007-06-13T14:04:43Z</time>
      </trkpt>
      <trkpt lat="48.37302" lon="-3.89104">
        <ele>241</ele>
        <time>2007-06-13T14:05:02Z</time>
      </trkpt>
      <trkpt lat="48.37321" lon="-3.89111">
        <ele>241</ele>
        <time>2007-06-13T14:05:20Z</time>
      </trkpt>
      <trkpt lat="48.37348" lon="-3.89124">
        <ele>241</ele>
        <time>2007-06-13T14:05:40Z</time>
      </trkpt>
      <trkpt lat="48.37412" lon="-3.89169">
        <ele>240.005432</ele>
        <time>2007-06-13T14:06:37Z</time>
      </trkpt>
      <trkpt lat="48.37423" lon="-3.89172">
        <ele>240.034103</ele>
        <time>2007-06-13T14:06:57Z</time>
      </trkpt>
      <trkpt lat="48.37435" lon="-3.89179">
        <ele>240.124283</ele>
        <time>2007-06-13T14:07:22Z</time>
      </trkpt>
      <trkpt lat="48.3745" lon="-3.89189">
        <ele>240.240402</ele>
        <time>2007-06-13T14:07:44Z</time>
      </trkpt>
      <trkpt lat="48.37471" lon="-3.89202">
        <ele>240.238358</ele>
        <time>2007-06-13T14:08:07Z</time>
      </trkpt>
      <trkpt lat="48.37533" lon="-3.89221">
        <ele>240</ele>
        <time>2007-06-13T14:08:57Z</time>
      </trkpt>
      <trkpt lat="48.37598" lon="-3.89234">
        <ele>240</ele>
        <time>2007-06-13T14:09:48Z</time>
      </trkpt>
      <trkpt lat="48.37638" lon="-3.89263">
        <ele>240.003433</ele>
        <time>2007-06-13T14:10:23Z</time>
      </trkpt>
      <trkpt lat="48.37663" lon="-3.89275">
        <ele>240.132401</ele>
        <time>2007-06-13T14:10:45Z</time>
      </trkpt>
      <trkpt lat="48.37671" lon="-3.89281">
        <ele>240.213364</ele>
        <time>2007-06-13T14:10:59Z</time>
      </trkpt>
      <trkpt lat="48.3769" lon="-3.89288">
        <ele>240.542328</ele>
        <time>2007-06-13T14:11:10Z</time>
      </trkpt>
      <trkpt lat="48.37737" lon="-3.89315">
        <ele>241</ele>
        <time>2007-06-13T14:11:47Z</time>
      </trkpt>
      <trkpt lat="48.37775" lon="-3.89336">
        <ele>240.431808</ele>
        <time>2007-06-13T14:12:23Z</time>
      </trkpt>
      <trkpt lat="48.37818" lon="-3.89351">
        <ele>238.481339</ele>
        <time>2007-06-13T14:12:56Z</time>
      </trkpt>
      <trkpt lat="48.37882" lon="-3.89375">
        <ele>236.519562</ele>
        <time>2007-06-13T14:13:47Z</time>
      </trkpt>
      <trkpt lat="48.37936" lon="-3.89395">
        <ele>235.627716</ele>
        <time>2007-06-13T14:14:34Z</time>
      </trkpt>
      <trkpt lat="48.37978" lon="-3.89408">
        <ele>234.97818</ele>
        <time>2007-06-13T14:15:14Z</time>
      </trkpt>
      <trkpt lat="48.38003" lon="-3.89418">
        <ele>234.554901</ele>
        <time>2007-06-13T14:15:38Z</time>
      </trkpt>
      <trkpt lat="48.38033" lon="-3.89408">
        <ele>234.430252</ele>
        <time>2007-06-13T14:16:10Z</time>
      </trkpt>
      <trkpt lat="48.38052" lon="-3.89357">
        <ele>234.868301</ele>
        <time>2007-06-13T14:16:47Z</time>
      </trkpt>
      <trkpt lat="48.38061" lon="-3.89333">
        <ele>235.067062</ele>
        <time>2007-06-13T14:17:18Z</time>
      </trkpt>
      <trkpt lat="48.38068" lon="-3.89318">
        <ele>235.164078</ele>
        <time>2007-06-13T14:17:36Z</time>
      </trkpt>
      <trkpt lat="48.38077" lon="-3.89296">
        <ele>235.316986</ele>
        <time>2007-06-13T14:18:01Z</time>
      </trkpt>
      <trkpt lat="48.38099" lon="-3.89244">
        <ele>236.247955</ele>
        <time>2007-06-13T14:18:36Z</time>
      </trkpt>
      <trkpt lat="48.38116" lon="-3.89201">
        <ele>237.722885</ele>
        <time>2007-06-13T14:19:08Z</time>
      </trkpt>
      <trkpt lat="48.38131" lon="-3.89161">
        <ele>239.120087</ele>
        <time>2007-06-13T14:19:37Z</time>
      </trkpt>
      <trkpt lat="48.38146" lon="-3.89135">
        <ele>240.106247</ele>
        <time>2007-06-13T14:20:02Z</time>
      </trkpt>
      <trkpt lat="48.38155" lon="-3.8914">
        <ele>239.833054</ele>
        <time>2007-06-13T14:20:22Z</time>
      </trkpt>
      <trkpt lat="48.3817" lon="-3.89155">
        <ele>239.154861</ele>
        <time>2007-06-13T14:20:50Z</time>
      </trkpt>
      <trkpt lat="48.38184" lon="-3.89174">
        <ele>238.696716</ele>
        <time>2007-06-13T14:21:17Z</time>
      </trkpt>
      <trkpt lat="48.38193" lon="-3.89179">
        <ele>238.732452</ele>
        <time>2007-06-13T14:21:45Z</time>
      </trkpt>
      <trkpt lat="48.382" lon="-3.89188">
        <ele>238.68486</ele>
        <time>2007-06-13T14:22:12Z</time>
      </trkpt>
      <trkpt lat="48.38203" lon="-3.89201">
        <ele>238.453445</ele>
        <time>2007-06-13T14:22:33Z</time>
      </trkpt>
      <trkpt lat="48.38219" lon="-3.89203">
        <ele>238.807632</ele>
        <time>2007-06-13T14:23:12Z</time>
      </trkpt>
      <trkpt lat="48.38236" lon="-3.89201">
        <ele>239.649979</ele>
        <time>2007-06-13T14:23:37Z</time>
      </trkpt>
      <trkpt lat="48.38276" lon="-3.89215">
        <ele>241.292648</ele>
        <time>2007-06-13T14:24:14Z</time>
      </trkpt>
      <trkpt lat="48.38331" lon="-3.89227">
        <ele>243.145126</ele>
        <time>2007-06-13T14:24:59Z</time>
      </trkpt>
      <trkpt lat="48.38346" lon="-3.89231">
        <ele>243.116348</ele>
        <time>2007-06-13T14:25:23Z</time>
      </trkpt>
      <trkpt lat="48.38388" lon="-3.89244">
        <ele>243.597168</ele>
        <time>2007-06-13T14:25:58Z</time>
      </trkpt>
      <trkpt lat="48.38453" lon="-3.89272">
        <ele>244.423859</ele>
        <time>2007-06-13T14:26:53Z</time>
      </trkpt>
      <trkpt lat="48.38467" lon="-3.89277">
        <ele>245.22348</ele>
        <time>2007-06-13T14:27:12Z</time>
      </trkpt>
      <trkpt lat="48.38498" lon="-3.89287">
        <ele>247.181168</ele>
        <time>2007-06-13T14:27:40Z</time>
      </trkpt>
      <trkpt lat="48.3851" lon="-3.89292">
        <ele>247.91452</ele>
        <time>2007-06-13T14:27:54Z</time>
      </trkpt>
      <trkpt lat="48.38522" lon="-3.89296">
        <ele>248.644058</ele>
        <time>2007-06-13T14:28:07Z</time>
      </trkpt>
      <trkpt lat="48.38547" lon="-3.89301">
        <ele>250.203323</ele>
        <time>2007-06-13T14:28:26Z</time>
      </trkpt>
      <trkpt lat="48.38575" lon="-3.8931">
        <ele>251.851883</ele>
        <time>2007-06-13T14:28:50Z</time>
      </trkpt>
      <trkpt lat="48.38597" lon="-3.89316">
        <ele>251.683502</ele>
        <time>2007-06-13T14:29:10Z</time>
      </trkpt>
      <trkpt lat="48.38615" lon="-3.89316">
        <ele>251.775299</ele>
        <time>2007-06-13T14:29:23Z</time>
      </trkpt>
      <trkpt lat="48.38624" lon="-3.89317">
        <ele>251.536697</ele>
        <time>2007-06-13T14:29:34Z</time>
      </trkpt>
      <trkpt lat="48.38681" lon="-3.8934">
        <ele>246.379196</ele>
        <time>2007-06-13T14:30:21Z</time>
      </trkpt>
      <trkpt lat="48.38738" lon="-3.89372">
        <ele>240.572037</ele>
        <time>2007-06-13T14:31:11Z</time>
      </trkpt>
      <trkpt lat="48.38755" lon="-3.89404">
        <ele>238.580521</ele>
        <time>2007-06-13T14:31:38Z</time>
      </trkpt>
      <trkpt lat="48.38758" lon="-3.89469">
        <ele>236.245941</ele>
        <time>2007-06-13T14:32:10Z</time>
      </trkpt>
      <trkpt lat="48.38769" lon="-3.89527">
        <ele>236.564484</ele>
        <time>2007-06-13T14:32:38Z</time>
      </trkpt>
      <trkpt lat="48.38798" lon="-3.89621">
        <ele>238.494202</ele>
        <time>2007-06-13T14:33:31Z</time>
      </trkpt>
      <trkpt lat="48.38806" lon="-3.89649">
        <ele>238.753174</ele>
        <time>2007-06-13T14:33:48Z</time>
      </trkpt>
      <trkpt lat="48.3883" lon="-3.89737">
        <ele>239.564758</ele>
        <time>2007-06-13T14:34:38Z</time>
      </trkpt>
      <trkpt lat="48.38854" lon="-3.898">
        <ele>240.111313</ele>
        <time>2007-06-13T14:35:17Z</time>
      </trkpt>
      <trkpt lat="48.38869" lon="-3.89894">
        <ele>239.124481</ele>
        <time>2007-06-13T14:36:11Z</time>
      </trkpt>
      <trkpt lat="48.38862" lon="-3.90018">
        <ele>240.788681</ele>
        <time>2007-06-13T14:37:19Z</time>
      </trkpt>
      <trkpt lat="48.38857" lon="-3.90077">
        <ele>240.827118</ele>
        <time>2007-06-13T14:37:46Z</time>
      </trkpt>
      <trkpt lat="48.38838" lon="-3.90184">
        <ele>242</ele>
        <time>2007-06-13T14:38:40Z</time>
      </trkpt>
      <trkpt lat="48.38827" lon="-3.90206">
        <ele>242</ele>
        <time>2007-06-13T14:39:03Z</time>
      </trkpt>
      <trkpt lat="48.38824" lon="-3.90229">
        <ele>242.366531</ele>
        <time>2007-06-13T14:39:27Z</time>
      </trkpt>
      <trkpt lat="48.38825" lon="-3.90298">
        <ele>245.457428</ele>
        <time>2007-06-13T14:40:07Z</time>
      </trkpt>
      <trkpt lat="48.38835" lon="-3.90341">
        <ele>250.548676</ele>
        <time>2007-06-13T14:40:40Z</time>
      </trkpt>
      <trkpt lat="48.38857" lon="-3.90396">
        <ele>252.854294</ele>
        <time>2007-06-13T14:41:10Z</time>
      </trkpt>
      <trkpt lat="48.38864" lon="-3.90423">
        <ele>254.712448</ele>
        <time>2007-06-13T14:41:19Z</time>
      </trkpt>
      <trkpt lat="48.3887" lon="-3.90473">
        <ele>257.003174</ele>
        <time>2007-06-13T14:41:43Z</time>
      </trkpt>
      <trkpt lat="48.3886" lon="-3.90512">
        <ele>259.346161</ele>
        <time>2007-06-13T14:42:09Z</time>
      </trkpt>
      <trkpt lat="48.38819" lon="-3.90562">
        <ele>262.297455</ele>
        <time>2007-06-13T14:42:40Z</time>
      </trkpt>
      <trkpt lat="48.38805" lon="-3.90578">
        <ele>263.010864</ele>
        <time>2007-06-13T14:42:49Z</time>
      </trkpt>
      <trkpt lat="48.38797" lon="-3.90582">
        <ele>263.321655</ele>
        <time>2007-06-13T14:42:52Z</time>
      </trkpt>
      <trkpt lat="48.3878" lon="-3.90608">
        <ele>263.903839</ele>
        <time>2007-06-13T14:43:09Z</time>
      </trkpt>
      <trkpt lat="48.38747" lon="-3.90652">
        <ele>262.530029</ele>
        <time>2007-06-13T14:43:42Z</time>
      </trkpt>
      <trkpt lat="48.38724" lon="-3.90692">
        <ele>259.093018</ele>
        <time>2007-06-13T14:44:13Z</time>
      </trkpt>
      <trkpt lat="48.38706" lon="-3.90736">
        <ele>258.355957</ele>
        <time>2007-06-13T14:44:36Z</time>
      </trkpt>
      <trkpt lat="48.38696" lon="-3.90759">
        <ele>258.309235</ele>
        <time>2007-06-13T14:44:49Z</time>
      </trkpt>
      <trkpt lat="48.38691" lon="-3.90769">
        <ele>258.388123</ele>
        <time>2007-06-13T14:45:24Z</time>
      </trkpt>
      <trkpt lat="48.38678" lon="-3.90794">
        <ele>258.478546</ele>
        <time>2007-06-13T14:45:40Z</time>
      </trkpt>
      <trkpt lat="48.38668" lon="-3.90814">
        <ele>258.916504</ele>
        <time>2007-06-13T14:45:59Z</time>
      </trkpt>
      <trkpt lat="48.38644" lon="-3.90847">
        <ele>258.939117</ele>
        <time>2007-06-13T14:46:20Z</time>
      </trkpt>
      <trkpt lat="48.38635" lon="-3.90874">
        <ele>259.192352</ele>
        <time>2007-06-13T14:46:38Z</time>
      </trkpt>
      <trkpt lat="48.38639" lon="-3.9087">
        <ele>259.454926</ele>
        <time>2007-06-13T14:46:44Z</time>
      </trkpt>
      <trkpt lat="48.38627" lon="-3.90884">
        <ele>258.522675</ele>
        <time>2007-06-13T14:46:56Z</time>
      </trkpt>
      <trkpt lat="48.3861" lon="-3.90895">
        <ele>256.043152</ele>
        <time>2007-06-13T14:47:09Z</time>
      </trkpt>
      <trkpt lat="48.38577" lon="-3.90911">
        <ele>251.704315</ele>
        <time>2007-06-13T14:47:23Z</time>
      </trkpt>
      <trkpt lat="48.38559" lon="-3.90915">
        <ele>249.553223</ele>
        <time>2007-06-13T14:47:38Z</time>
      </trkpt>
      <trkpt lat="48.38555" lon="-3.90908">
        <ele>248.716095</ele>
        <time>2007-06-13T14:47:56Z</time>
      </trkpt>
      <trkpt lat="48.3853" lon="-3.9089">
        <ele>245.018173</ele>
        <time>2007-06-13T14:48:26Z</time>
      </trkpt>
      <trkpt lat="48.38499" lon="-3.90855">
        <ele>242.290009</ele>
        <time>2007-06-13T14:48:55Z</time>
      </trkpt>
      <trkpt lat="48.38482" lon="-3.90855">
        <ele>241.5401</ele>
        <time>2007-06-13T14:49:06Z</time>
      </trkpt>
      <trkpt lat="48.3846" lon="-3.90857">
        <ele>240.601425</ele>
        <time>2007-06-13T14:49:23Z</time>
      </trkpt>
      <trkpt lat="48.38439" lon="-3.90877">
        <ele>239.834442</ele>
        <time>2007-06-13T14:49:38Z</time>
      </trkpt>
      <trkpt lat="48.38398" lon="-3.90918">
        <ele>239.216187</ele>
        <time>2007-06-13T14:50:14Z</time>
      </trkpt>
      <trkpt lat="48.38368" lon="-3.90957">
        <ele>240.006363</ele>
        <time>2007-06-13T14:50:53Z</time>
      </trkpt>
      <trkpt lat="48.38344" lon="-3.91013">
        <ele>241.264648</ele>
        <time>2007-06-13T14:51:27Z</time>
      </trkpt>
      <trkpt lat="48.38334" lon="-3.91032">
        <ele>241.835815</ele>
        <time>2007-06-13T14:51:35Z</time>
      </trkpt>
      <trkpt lat="48.38317" lon="-3.9108">
        <ele>242.885971</ele>
        <time>2007-06-13T14:51:58Z</time>
      </trkpt>
      <trkpt lat="48.38315" lon="-3.91101">
        <ele>243.283295</ele>
        <time>2007-06-13T14:52:09Z</time>
      </trkpt>
      <trkpt lat="48.38304" lon="-3.91151">
        <ele>244.720825</ele>
        <time>2007-06-13T14:52:30Z</time>
      </trkpt>
      <trkpt lat="48.383" lon="-3.91182">
        <ele>245.401321</ele>
        <time>2007-06-13T14:52:43Z</time>
      </trkpt>
      <trkpt lat="48.38287" lon="-3.91215">
        <ele>245.688126</ele>
        <time>2007-06-13T14:52:54Z</time>
      </trkpt>
      <trkpt lat="48.38284" lon="-3.91235">
        <ele>245.992966</ele>
        <time>2007-06-13T14:53:08Z</time>
      </trkpt>
      <trkpt lat="48.38275" lon="-3.91266">
        <ele>246.937531</ele>
        <time>2007-06-13T14:53:41Z</time>
      </trkpt>
      <trkpt lat="48.38277" lon="-3.91335">
        <ele>248.976212</ele>
        <time>2007-06-13T14:54:18Z</time>
      </trkpt>
      <trkpt lat="48.38275" lon="-3.91353">
        <ele>249.488861</ele>
        <time>2007-06-13T14:54:27Z</time>
      </trkpt>
      <trkpt lat="48.38276" lon="-3.91391">
        <ele>251.170273</ele>
        <time>2007-06-13T14:54:47Z</time>
      </trkpt>
      <trkpt lat="48.38275" lon="-3.91408">
        <ele>252.175369</ele>
        <time>2007-06-13T14:55:03Z</time>
      </trkpt>
      <trkpt lat="48.38284" lon="-3.91456">
        <ele>255.011353</ele>
        <time>2007-06-13T14:55:30Z</time>
      </trkpt>
      <trkpt lat="48.38287" lon="-3.91469">
        <ele>255.791214</ele>
        <time>2007-06-13T14:55:37Z</time>
      </trkpt>
      <trkpt lat="48.38297" lon="-3.91502">
        <ele>258.006439</ele>
        <time>2007-06-13T14:55:59Z</time>
      </trkpt>
      <trkpt lat="48.38317" lon="-3.9156">
        <ele>259.779633</ele>
        <time>2007-06-13T14:56:36Z</time>
      </trkpt>
      <trkpt lat="48.38326" lon="-3.91577">
        <ele>260.964447</ele>
        <time>2007-06-13T14:56:44Z</time>
      </trkpt>
      <trkpt lat="48.3832" lon="-3.91594">
        <ele>260.074158</ele>
        <time>2007-06-13T14:56:50Z</time>
      </trkpt>
      <trkpt lat="48.3832" lon="-3.91611">
        <ele>259.967834</ele>
        <time>2007-06-13T14:56:59Z</time>
      </trkpt>
      <trkpt lat="48.38317" lon="-3.91629">
        <ele>259.297668</ele>
        <time>2007-06-13T14:57:08Z</time>
      </trkpt>
      <trkpt lat="48.38307" lon="-3.91665">
        <ele>257.461975</ele>
        <time>2007-06-13T14:57:29Z</time>
      </trkpt>
      <trkpt lat="48.38305" lon="-3.91704">
        <ele>256.375092</ele>
        <time>2007-06-13T14:57:45Z</time>
      </trkpt>
      <trkpt lat="48.38291" lon="-3.91759">
        <ele>253.129745</ele>
        <time>2007-06-13T14:58:03Z</time>
      </trkpt>
      <trkpt lat="48.38286" lon="-3.91763">
        <ele>252.477875</ele>
        <time>2007-06-13T14:58:12Z</time>
      </trkpt>
      <trkpt lat="48.38285" lon="-3.91791">
        <ele>251.464401</ele>
        <time>2007-06-13T14:58:26Z</time>
      </trkpt>
      <trkpt lat="48.38279" lon="-3.91835">
        <ele>249.383942</ele>
        <time>2007-06-13T14:58:41Z</time>
      </trkpt>
      <trkpt lat="48.38257" lon="-3.91846">
        <ele>246.741196</ele>
        <time>2007-06-13T14:58:46Z</time>
      </trkpt>
      <trkpt lat="48.38262" lon="-3.91856">
        <ele>246.91774</ele>
        <time>2007-06-13T14:58:56Z</time>
      </trkpt>
      <trkpt lat="48.38275" lon="-3.9189">
        <ele>248.173004</ele>
        <time>2007-06-13T14:59:16Z</time>
      </trkpt>
      <trkpt lat="48.38288" lon="-3.91914">
        <ele>249.829758</ele>
        <time>2007-06-13T14:59:30Z</time>
      </trkpt>
      <trkpt lat="48.383" lon="-3.91935">
        <ele>250.423325</ele>
        <time>2007-06-13T15:00:00Z</time>
      </trkpt>
      <trkpt lat="48.38311" lon="-3.91964">
        <ele>250.694763</ele>
        <time>2007-06-13T15:00:18Z</time>
      </trkpt>
    </trkseg>
  </trk>
</gpx>